<?xml version="1.0" encoding="UTF-8" standalone="no" ?>
<gpx xmlns="http://www.topografix.com/GPX/1/1" xmlns:xsi="http://www.w3.org/2001/XMLSchema-instance" xsi:schemaLocation="http://www.topografix.com/GPX/1/1 http://www.topografix.com/GPX/1/1/gpx.xsd" version="1.1" creator="VisuGPX - https://www.visugpx.com">
  <metadata>
    <name>Tunnel du Mortier-Chemin des Boeuf-Noyarey</name>
    <desc><![CDATA[Descente VTT du tunnel du Mortier par le chemin des boeufs, puis au plus direct vers Noyarey]]></desc>
  </metadata>
  <trk>
    <name><![CDATA[Mortier - chemin des boeufs]]></name>
    <trkseg>
      <trkpt lat="45.24085" lon="5.58858">
        <ele>1435</ele>
        <time>2011-06-10T06:17:11Z</time>
      </trkpt>
      <trkpt lat="45.24085" lon="5.58858">
        <ele>1435</ele>
        <time>2011-06-10T06:17:11Z</time>
      </trkpt>
      <trkpt lat="45.24085" lon="5.58858">
        <ele>1435</ele>
        <time>2011-06-10T06:17:13Z</time>
      </trkpt>
      <trkpt lat="45.2409" lon="5.58859">
        <ele>1434</ele>
        <time>2011-06-10T06:17:29Z</time>
      </trkpt>
      <trkpt lat="45.24167" lon="5.58861">
        <ele>1434</ele>
        <time>2011-06-10T06:17:34Z</time>
      </trkpt>
      <trkpt lat="45.24176" lon="5.58863">
        <ele>1434</ele>
        <time>2011-06-10T06:17:35Z</time>
      </trkpt>
      <trkpt lat="45.24182" lon="5.58864">
        <ele>1436</ele>
        <time>2011-06-10T06:17:36Z</time>
      </trkpt>
      <trkpt lat="45.24188" lon="5.58863">
        <ele>1438</ele>
        <time>2011-06-10T06:17:37Z</time>
      </trkpt>
      <trkpt lat="45.24194" lon="5.58858">
        <ele>1440</ele>
        <time>2011-06-10T06:17:38Z</time>
      </trkpt>
      <trkpt lat="45.24204" lon="5.58852">
        <ele>1442</ele>
        <time>2011-06-10T06:17:39Z</time>
      </trkpt>
      <trkpt lat="45.2421" lon="5.58846">
        <ele>1442</ele>
        <time>2011-06-10T06:17:40Z</time>
      </trkpt>
      <trkpt lat="45.24216" lon="5.58839">
        <ele>1441</ele>
        <time>2011-06-10T06:17:41Z</time>
      </trkpt>
      <trkpt lat="45.24222" lon="5.58834">
        <ele>1441</ele>
        <time>2011-06-10T06:17:42Z</time>
      </trkpt>
      <trkpt lat="45.24228" lon="5.58832">
        <ele>1441</ele>
        <time>2011-06-10T06:17:43Z</time>
      </trkpt>
      <trkpt lat="45.24234" lon="5.58831">
        <ele>1441</ele>
        <time>2011-06-10T06:17:44Z</time>
      </trkpt>
      <trkpt lat="45.24241" lon="5.58829">
        <ele>1440</ele>
        <time>2011-06-10T06:17:45Z</time>
      </trkpt>
      <trkpt lat="45.24247" lon="5.58825">
        <ele>1439</ele>
        <time>2011-06-10T06:17:46Z</time>
      </trkpt>
      <trkpt lat="45.24254" lon="5.5882">
        <ele>1440</ele>
        <time>2011-06-10T06:17:47Z</time>
      </trkpt>
      <trkpt lat="45.2426" lon="5.58819">
        <ele>1438</ele>
        <time>2011-06-10T06:17:48Z</time>
      </trkpt>
      <trkpt lat="45.24269" lon="5.58816">
        <ele>1435</ele>
        <time>2011-06-10T06:17:49Z</time>
      </trkpt>
      <trkpt lat="45.24273" lon="5.58812">
        <ele>1434</ele>
        <time>2011-06-10T06:17:50Z</time>
      </trkpt>
      <trkpt lat="45.24278" lon="5.58809">
        <ele>1434</ele>
        <time>2011-06-10T06:17:51Z</time>
      </trkpt>
      <trkpt lat="45.24282" lon="5.58806">
        <ele>1433</ele>
        <time>2011-06-10T06:17:52Z</time>
      </trkpt>
      <trkpt lat="45.24288" lon="5.58806">
        <ele>1434</ele>
        <time>2011-06-10T06:17:53Z</time>
      </trkpt>
      <trkpt lat="45.24293" lon="5.58803">
        <ele>1434</ele>
        <time>2011-06-10T06:17:54Z</time>
      </trkpt>
      <trkpt lat="45.24301" lon="5.58798">
        <ele>1435</ele>
        <time>2011-06-10T06:17:56Z</time>
      </trkpt>
      <trkpt lat="45.24306" lon="5.58796">
        <ele>1433</ele>
        <time>2011-06-10T06:17:57Z</time>
      </trkpt>
      <trkpt lat="45.24315" lon="5.58786">
        <ele>1432</ele>
        <time>2011-06-10T06:17:59Z</time>
      </trkpt>
      <trkpt lat="45.24322" lon="5.58778">
        <ele>1428</ele>
        <time>2011-06-10T06:18:00Z</time>
      </trkpt>
      <trkpt lat="45.24325" lon="5.58771">
        <ele>1427</ele>
        <time>2011-06-10T06:18:01Z</time>
      </trkpt>
      <trkpt lat="45.2433" lon="5.58766">
        <ele>1426</ele>
        <time>2011-06-10T06:18:02Z</time>
      </trkpt>
      <trkpt lat="45.24335" lon="5.58762">
        <ele>1426</ele>
        <time>2011-06-10T06:18:03Z</time>
      </trkpt>
      <trkpt lat="45.24338" lon="5.58758">
        <ele>1425</ele>
        <time>2011-06-10T06:18:04Z</time>
      </trkpt>
      <trkpt lat="45.24341" lon="5.58752">
        <ele>1425</ele>
        <time>2011-06-10T06:18:05Z</time>
      </trkpt>
      <trkpt lat="45.24346" lon="5.58748">
        <ele>1424</ele>
        <time>2011-06-10T06:18:06Z</time>
      </trkpt>
      <trkpt lat="45.24352" lon="5.58743">
        <ele>1424</ele>
        <time>2011-06-10T06:18:07Z</time>
      </trkpt>
      <trkpt lat="45.24356" lon="5.5874">
        <ele>1424</ele>
        <time>2011-06-10T06:18:08Z</time>
      </trkpt>
      <trkpt lat="45.24369" lon="5.58735">
        <ele>1424</ele>
        <time>2011-06-10T06:18:10Z</time>
      </trkpt>
      <trkpt lat="45.24375" lon="5.58732">
        <ele>1424</ele>
        <time>2011-06-10T06:18:11Z</time>
      </trkpt>
      <trkpt lat="45.2438" lon="5.58729">
        <ele>1424</ele>
        <time>2011-06-10T06:18:12Z</time>
      </trkpt>
      <trkpt lat="45.24386" lon="5.58724">
        <ele>1424</ele>
        <time>2011-06-10T06:18:13Z</time>
      </trkpt>
      <trkpt lat="45.24391" lon="5.58718">
        <ele>1424</ele>
        <time>2011-06-10T06:18:15Z</time>
      </trkpt>
      <trkpt lat="45.24397" lon="5.58712">
        <ele>1424</ele>
        <time>2011-06-10T06:18:17Z</time>
      </trkpt>
      <trkpt lat="45.24402" lon="5.58708">
        <ele>1424</ele>
        <time>2011-06-10T06:18:18Z</time>
      </trkpt>
      <trkpt lat="45.24412" lon="5.5871">
        <ele>1425</ele>
        <time>2011-06-10T06:18:20Z</time>
      </trkpt>
      <trkpt lat="45.24419" lon="5.58716">
        <ele>1424</ele>
        <time>2011-06-10T06:18:22Z</time>
      </trkpt>
      <trkpt lat="45.24426" lon="5.58715">
        <ele>1424</ele>
        <time>2011-06-10T06:18:25Z</time>
      </trkpt>
      <trkpt lat="45.2443" lon="5.58707">
        <ele>1422</ele>
        <time>2011-06-10T06:18:27Z</time>
      </trkpt>
      <trkpt lat="45.24438" lon="5.58704">
        <ele>1421</ele>
        <time>2011-06-10T06:18:30Z</time>
      </trkpt>
      <trkpt lat="45.24443" lon="5.58704">
        <ele>1421</ele>
        <time>2011-06-10T06:18:31Z</time>
      </trkpt>
      <trkpt lat="45.24448" lon="5.58708">
        <ele>1421</ele>
        <time>2011-06-10T06:18:32Z</time>
      </trkpt>
      <trkpt lat="45.24453" lon="5.58713">
        <ele>1419</ele>
        <time>2011-06-10T06:18:33Z</time>
      </trkpt>
      <trkpt lat="45.24458" lon="5.58716">
        <ele>1419</ele>
        <time>2011-06-10T06:18:34Z</time>
      </trkpt>
      <trkpt lat="45.24466" lon="5.58722">
        <ele>1418</ele>
        <time>2011-06-10T06:18:35Z</time>
      </trkpt>
      <trkpt lat="45.24472" lon="5.58727">
        <ele>1416</ele>
        <time>2011-06-10T06:18:36Z</time>
      </trkpt>
      <trkpt lat="45.24478" lon="5.58731">
        <ele>1415</ele>
        <time>2011-06-10T06:18:37Z</time>
      </trkpt>
      <trkpt lat="45.24486" lon="5.58737">
        <ele>1414</ele>
        <time>2011-06-10T06:18:38Z</time>
      </trkpt>
      <trkpt lat="45.24494" lon="5.58742">
        <ele>1414</ele>
        <time>2011-06-10T06:18:39Z</time>
      </trkpt>
      <trkpt lat="45.24502" lon="5.58748">
        <ele>1414</ele>
        <time>2011-06-10T06:18:40Z</time>
      </trkpt>
      <trkpt lat="45.24511" lon="5.5875">
        <ele>1413</ele>
        <time>2011-06-10T06:18:41Z</time>
      </trkpt>
      <trkpt lat="45.24522" lon="5.58753">
        <ele>1412</ele>
        <time>2011-06-10T06:18:42Z</time>
      </trkpt>
      <trkpt lat="45.2453" lon="5.58757">
        <ele>1412</ele>
        <time>2011-06-10T06:18:43Z</time>
      </trkpt>
      <trkpt lat="45.24537" lon="5.58757">
        <ele>1412</ele>
        <time>2011-06-10T06:18:44Z</time>
      </trkpt>
      <trkpt lat="45.24542" lon="5.58761">
        <ele>1412</ele>
        <time>2011-06-10T06:18:45Z</time>
      </trkpt>
      <trkpt lat="45.24553" lon="5.58759">
        <ele>1413</ele>
        <time>2011-06-10T06:18:46Z</time>
      </trkpt>
      <trkpt lat="45.2456" lon="5.58761">
        <ele>1412</ele>
        <time>2011-06-10T06:18:47Z</time>
      </trkpt>
      <trkpt lat="45.24567" lon="5.58762">
        <ele>1412</ele>
        <time>2011-06-10T06:18:48Z</time>
      </trkpt>
      <trkpt lat="45.24575" lon="5.58764">
        <ele>1411</ele>
        <time>2011-06-10T06:18:49Z</time>
      </trkpt>
      <trkpt lat="45.24582" lon="5.58765">
        <ele>1411</ele>
        <time>2011-06-10T06:18:50Z</time>
      </trkpt>
      <trkpt lat="45.24588" lon="5.58765">
        <ele>1411</ele>
        <time>2011-06-10T06:18:51Z</time>
      </trkpt>
      <trkpt lat="45.24594" lon="5.58766">
        <ele>1412</ele>
        <time>2011-06-10T06:18:52Z</time>
      </trkpt>
      <trkpt lat="45.246" lon="5.58767">
        <ele>1413</ele>
        <time>2011-06-10T06:18:53Z</time>
      </trkpt>
      <trkpt lat="45.24607" lon="5.58768">
        <ele>1413</ele>
        <time>2011-06-10T06:18:54Z</time>
      </trkpt>
      <trkpt lat="45.24616" lon="5.58758">
        <ele>1412</ele>
        <time>2011-06-10T06:18:55Z</time>
      </trkpt>
      <trkpt lat="45.24625" lon="5.58748">
        <ele>1412</ele>
        <time>2011-06-10T06:18:56Z</time>
      </trkpt>
      <trkpt lat="45.24631" lon="5.58744">
        <ele>1412</ele>
        <time>2011-06-10T06:18:57Z</time>
      </trkpt>
      <trkpt lat="45.24637" lon="5.58741">
        <ele>1410</ele>
        <time>2011-06-10T06:18:58Z</time>
      </trkpt>
      <trkpt lat="45.24644" lon="5.58741">
        <ele>1410</ele>
        <time>2011-06-10T06:19:00Z</time>
      </trkpt>
      <trkpt lat="45.24649" lon="5.58737">
        <ele>1410</ele>
        <time>2011-06-10T06:19:01Z</time>
      </trkpt>
      <trkpt lat="45.24653" lon="5.5873">
        <ele>1411</ele>
        <time>2011-06-10T06:19:03Z</time>
      </trkpt>
      <trkpt lat="45.24656" lon="5.58725">
        <ele>1410</ele>
        <time>2011-06-10T06:19:05Z</time>
      </trkpt>
      <trkpt lat="45.24653" lon="5.58717">
        <ele>1411</ele>
        <time>2011-06-10T06:19:06Z</time>
      </trkpt>
      <trkpt lat="45.24655" lon="5.5871">
        <ele>1411</ele>
        <time>2011-06-10T06:19:08Z</time>
      </trkpt>
      <trkpt lat="45.24666" lon="5.58701">
        <ele>1404</ele>
        <time>2011-06-10T06:19:10Z</time>
      </trkpt>
      <trkpt lat="45.24673" lon="5.58694">
        <ele>1400</ele>
        <time>2011-06-10T06:19:12Z</time>
      </trkpt>
      <trkpt lat="45.24679" lon="5.58692">
        <ele>1400</ele>
        <time>2011-06-10T06:19:14Z</time>
      </trkpt>
      <trkpt lat="45.24683" lon="5.58688">
        <ele>1399</ele>
        <time>2011-06-10T06:19:16Z</time>
      </trkpt>
      <trkpt lat="45.24681" lon="5.58682">
        <ele>1398</ele>
        <time>2011-06-10T06:19:18Z</time>
      </trkpt>
      <trkpt lat="45.2469" lon="5.58682">
        <ele>1397</ele>
        <time>2011-06-10T06:19:20Z</time>
      </trkpt>
      <trkpt lat="45.24696" lon="5.58685">
        <ele>1397</ele>
        <time>2011-06-10T06:19:21Z</time>
      </trkpt>
      <trkpt lat="45.24701" lon="5.58688">
        <ele>1396</ele>
        <time>2011-06-10T06:19:24Z</time>
      </trkpt>
      <trkpt lat="45.2471" lon="5.58688">
        <ele>1395</ele>
        <time>2011-06-10T06:19:26Z</time>
      </trkpt>
      <trkpt lat="45.24716" lon="5.58695">
        <ele>1394</ele>
        <time>2011-06-10T06:19:30Z</time>
      </trkpt>
      <trkpt lat="45.24722" lon="5.58699">
        <ele>1394</ele>
        <time>2011-06-10T06:19:32Z</time>
      </trkpt>
      <trkpt lat="45.24728" lon="5.58707">
        <ele>1394</ele>
        <time>2011-06-10T06:19:36Z</time>
      </trkpt>
      <trkpt lat="45.24735" lon="5.58713">
        <ele>1395</ele>
        <time>2011-06-10T06:19:37Z</time>
      </trkpt>
      <trkpt lat="45.24733" lon="5.58719">
        <ele>1394</ele>
        <time>2011-06-10T06:19:39Z</time>
      </trkpt>
      <trkpt lat="45.24735" lon="5.58729">
        <ele>1393</ele>
        <time>2011-06-10T06:19:44Z</time>
      </trkpt>
      <trkpt lat="45.24736" lon="5.5874">
        <ele>1394</ele>
        <time>2011-06-10T06:19:47Z</time>
      </trkpt>
      <trkpt lat="45.24733" lon="5.58751">
        <ele>1392</ele>
        <time>2011-06-10T06:19:49Z</time>
      </trkpt>
      <trkpt lat="45.24733" lon="5.58761">
        <ele>1392</ele>
        <time>2011-06-10T06:19:57Z</time>
      </trkpt>
      <trkpt lat="45.24729" lon="5.58768">
        <ele>1390</ele>
        <time>2011-06-10T06:20:19Z</time>
      </trkpt>
      <trkpt lat="45.24724" lon="5.5879">
        <ele>1382</ele>
        <time>2011-06-10T06:33:30Z</time>
      </trkpt>
      <trkpt lat="45.24718" lon="5.58899">
        <ele>1358</ele>
        <time>2011-06-10T06:33:32Z</time>
      </trkpt>
      <trkpt lat="45.24704" lon="5.58907">
        <ele>1356</ele>
        <time>2011-06-10T06:33:33Z</time>
      </trkpt>
      <trkpt lat="45.24699" lon="5.58915">
        <ele>1354</ele>
        <time>2011-06-10T06:33:34Z</time>
      </trkpt>
      <trkpt lat="45.24698" lon="5.58925">
        <ele>1354</ele>
        <time>2011-06-10T06:33:36Z</time>
      </trkpt>
      <trkpt lat="45.24699" lon="5.58933">
        <ele>1354</ele>
        <time>2011-06-10T06:33:37Z</time>
      </trkpt>
      <trkpt lat="45.247" lon="5.58941">
        <ele>1353</ele>
        <time>2011-06-10T06:33:38Z</time>
      </trkpt>
      <trkpt lat="45.24698" lon="5.58949">
        <ele>1353</ele>
        <time>2011-06-10T06:33:40Z</time>
      </trkpt>
      <trkpt lat="45.24696" lon="5.58959">
        <ele>1352</ele>
        <time>2011-06-10T06:33:42Z</time>
      </trkpt>
      <trkpt lat="45.24691" lon="5.58967">
        <ele>1352</ele>
        <time>2011-06-10T06:33:45Z</time>
      </trkpt>
      <trkpt lat="45.24687" lon="5.58975">
        <ele>1351</ele>
        <time>2011-06-10T06:33:48Z</time>
      </trkpt>
      <trkpt lat="45.24684" lon="5.58981">
        <ele>1349</ele>
        <time>2011-06-10T06:33:50Z</time>
      </trkpt>
      <trkpt lat="45.24681" lon="5.58987">
        <ele>1349</ele>
        <time>2011-06-10T06:33:51Z</time>
      </trkpt>
      <trkpt lat="45.24677" lon="5.58995">
        <ele>1347</ele>
        <time>2011-06-10T06:33:53Z</time>
      </trkpt>
      <trkpt lat="45.24672" lon="5.59003">
        <ele>1347</ele>
        <time>2011-06-10T06:33:55Z</time>
      </trkpt>
      <trkpt lat="45.24665" lon="5.59004">
        <ele>1347</ele>
        <time>2011-06-10T06:33:58Z</time>
      </trkpt>
      <trkpt lat="45.2466" lon="5.59006">
        <ele>1346</ele>
        <time>2011-06-10T06:34:00Z</time>
      </trkpt>
      <trkpt lat="45.24655" lon="5.59002">
        <ele>1346</ele>
        <time>2011-06-10T06:34:02Z</time>
      </trkpt>
      <trkpt lat="45.2465" lon="5.59002">
        <ele>1345</ele>
        <time>2011-06-10T06:34:04Z</time>
      </trkpt>
      <trkpt lat="45.24644" lon="5.58999">
        <ele>1345</ele>
        <time>2011-06-10T06:34:06Z</time>
      </trkpt>
      <trkpt lat="45.24639" lon="5.58996">
        <ele>1344</ele>
        <time>2011-06-10T06:34:08Z</time>
      </trkpt>
      <trkpt lat="45.24637" lon="5.58989">
        <ele>1342</ele>
        <time>2011-06-10T06:34:10Z</time>
      </trkpt>
      <trkpt lat="45.24632" lon="5.58982">
        <ele>1342</ele>
        <time>2011-06-10T06:34:13Z</time>
      </trkpt>
      <trkpt lat="45.24628" lon="5.58976">
        <ele>1339</ele>
        <time>2011-06-10T06:34:16Z</time>
      </trkpt>
      <trkpt lat="45.24623" lon="5.58971">
        <ele>1339</ele>
        <time>2011-06-10T06:34:20Z</time>
      </trkpt>
      <trkpt lat="45.24617" lon="5.58977">
        <ele>1337</ele>
        <time>2011-06-10T06:34:26Z</time>
      </trkpt>
      <trkpt lat="45.2461" lon="5.58979">
        <ele>1335</ele>
        <time>2011-06-10T06:34:39Z</time>
      </trkpt>
      <trkpt lat="45.24608" lon="5.58972">
        <ele>1336</ele>
        <time>2011-06-10T06:34:52Z</time>
      </trkpt>
      <trkpt lat="45.24594" lon="5.5897">
        <ele>1304</ele>
        <time>2011-06-10T06:50:03Z</time>
      </trkpt>
      <trkpt lat="45.24584" lon="5.58972">
        <ele>1303</ele>
        <time>2011-06-10T06:50:28Z</time>
      </trkpt>
      <trkpt lat="45.24574" lon="5.58978">
        <ele>1302</ele>
        <time>2011-06-10T06:50:29Z</time>
      </trkpt>
      <trkpt lat="45.24562" lon="5.58981">
        <ele>1301</ele>
        <time>2011-06-10T06:50:31Z</time>
      </trkpt>
      <trkpt lat="45.24551" lon="5.58992">
        <ele>1301</ele>
        <time>2011-06-10T06:50:33Z</time>
      </trkpt>
      <trkpt lat="45.24545" lon="5.58996">
        <ele>1300</ele>
        <time>2011-06-10T06:50:34Z</time>
      </trkpt>
      <trkpt lat="45.24541" lon="5.59">
        <ele>1300</ele>
        <time>2011-06-10T06:50:35Z</time>
      </trkpt>
      <trkpt lat="45.24533" lon="5.58995">
        <ele>1304</ele>
        <time>2011-06-10T06:50:36Z</time>
      </trkpt>
      <trkpt lat="45.24529" lon="5.58999">
        <ele>1305</ele>
        <time>2011-06-10T06:50:38Z</time>
      </trkpt>
      <trkpt lat="45.24525" lon="5.59003">
        <ele>1304</ele>
        <time>2011-06-10T06:50:39Z</time>
      </trkpt>
      <trkpt lat="45.24518" lon="5.59001">
        <ele>1306</ele>
        <time>2011-06-10T06:50:41Z</time>
      </trkpt>
      <trkpt lat="45.24514" lon="5.58998">
        <ele>1308</ele>
        <time>2011-06-10T06:50:42Z</time>
      </trkpt>
      <trkpt lat="45.24509" lon="5.58991">
        <ele>1304</ele>
        <time>2011-06-10T06:50:45Z</time>
      </trkpt>
      <trkpt lat="45.24504" lon="5.58992">
        <ele>1302</ele>
        <time>2011-06-10T06:50:49Z</time>
      </trkpt>
      <trkpt lat="45.245" lon="5.58995">
        <ele>1302</ele>
        <time>2011-06-10T06:50:52Z</time>
      </trkpt>
      <trkpt lat="45.24494" lon="5.58996">
        <ele>1296</ele>
        <time>2011-06-10T06:50:54Z</time>
      </trkpt>
      <trkpt lat="45.24486" lon="5.58995">
        <ele>1290</ele>
        <time>2011-06-10T06:50:58Z</time>
      </trkpt>
      <trkpt lat="45.2448" lon="5.59">
        <ele>1288</ele>
        <time>2011-06-10T06:51:01Z</time>
      </trkpt>
      <trkpt lat="45.24475" lon="5.59006">
        <ele>1289</ele>
        <time>2011-06-10T06:51:05Z</time>
      </trkpt>
      <trkpt lat="45.24471" lon="5.59012">
        <ele>1289</ele>
        <time>2011-06-10T06:51:08Z</time>
      </trkpt>
      <trkpt lat="45.2446" lon="5.59046">
        <ele>1253</ele>
        <time>2011-06-10T06:52:26Z</time>
      </trkpt>
      <trkpt lat="45.24442" lon="5.59047">
        <ele>1252</ele>
        <time>2011-06-10T06:52:27Z</time>
      </trkpt>
      <trkpt lat="45.24438" lon="5.59058">
        <ele>1252</ele>
        <time>2011-06-10T06:52:29Z</time>
      </trkpt>
      <trkpt lat="45.24435" lon="5.59065">
        <ele>1253</ele>
        <time>2011-06-10T06:52:30Z</time>
      </trkpt>
      <trkpt lat="45.24427" lon="5.59073">
        <ele>1251</ele>
        <time>2011-06-10T06:52:32Z</time>
      </trkpt>
      <trkpt lat="45.24422" lon="5.59079">
        <ele>1251</ele>
        <time>2011-06-10T06:52:34Z</time>
      </trkpt>
      <trkpt lat="45.24418" lon="5.59082">
        <ele>1250</ele>
        <time>2011-06-10T06:52:36Z</time>
      </trkpt>
      <trkpt lat="45.24408" lon="5.59083">
        <ele>1250</ele>
        <time>2011-06-10T06:52:39Z</time>
      </trkpt>
      <trkpt lat="45.24403" lon="5.59086">
        <ele>1249</ele>
        <time>2011-06-10T06:52:41Z</time>
      </trkpt>
      <trkpt lat="45.24396" lon="5.59084">
        <ele>1249</ele>
        <time>2011-06-10T06:52:43Z</time>
      </trkpt>
      <trkpt lat="45.24389" lon="5.59086">
        <ele>1249</ele>
        <time>2011-06-10T06:52:45Z</time>
      </trkpt>
      <trkpt lat="45.24384" lon="5.59091">
        <ele>1247</ele>
        <time>2011-06-10T06:52:51Z</time>
      </trkpt>
      <trkpt lat="45.24379" lon="5.5909">
        <ele>1247</ele>
        <time>2011-06-10T06:52:54Z</time>
      </trkpt>
      <trkpt lat="45.24374" lon="5.591">
        <ele>1246</ele>
        <time>2011-06-10T06:52:59Z</time>
      </trkpt>
      <trkpt lat="45.24369" lon="5.59104">
        <ele>1245</ele>
        <time>2011-06-10T06:53:02Z</time>
      </trkpt>
      <trkpt lat="45.24364" lon="5.59106">
        <ele>1244</ele>
        <time>2011-06-10T06:53:06Z</time>
      </trkpt>
      <trkpt lat="45.24364" lon="5.59119">
        <ele>1235</ele>
        <time>2011-06-10T06:53:50Z</time>
      </trkpt>
      <trkpt lat="45.24368" lon="5.59125">
        <ele>1236</ele>
        <time>2011-06-10T06:53:52Z</time>
      </trkpt>
      <trkpt lat="45.24367" lon="5.59132">
        <ele>1231</ele>
        <time>2011-06-10T06:53:54Z</time>
      </trkpt>
      <trkpt lat="45.24372" lon="5.59136">
        <ele>1229</ele>
        <time>2011-06-10T06:53:57Z</time>
      </trkpt>
      <trkpt lat="45.24368" lon="5.5914">
        <ele>1227</ele>
        <time>2011-06-10T06:54:01Z</time>
      </trkpt>
      <trkpt lat="45.24372" lon="5.59144">
        <ele>1229</ele>
        <time>2011-06-10T06:54:08Z</time>
      </trkpt>
      <trkpt lat="45.24368" lon="5.5915">
        <ele>1230</ele>
        <time>2011-06-10T06:54:12Z</time>
      </trkpt>
      <trkpt lat="45.24363" lon="5.59155">
        <ele>1230</ele>
        <time>2011-06-10T06:54:15Z</time>
      </trkpt>
      <trkpt lat="45.24359" lon="5.59158">
        <ele>1230</ele>
        <time>2011-06-10T06:54:16Z</time>
      </trkpt>
      <trkpt lat="45.24355" lon="5.59163">
        <ele>1229</ele>
        <time>2011-06-10T06:54:18Z</time>
      </trkpt>
      <trkpt lat="45.2435" lon="5.59165">
        <ele>1229</ele>
        <time>2011-06-10T06:54:20Z</time>
      </trkpt>
      <trkpt lat="45.24345" lon="5.5917">
        <ele>1228</ele>
        <time>2011-06-10T06:54:22Z</time>
      </trkpt>
      <trkpt lat="45.24343" lon="5.59179">
        <ele>1229</ele>
        <time>2011-06-10T06:54:25Z</time>
      </trkpt>
      <trkpt lat="45.24336" lon="5.59185">
        <ele>1229</ele>
        <time>2011-06-10T06:54:27Z</time>
      </trkpt>
      <trkpt lat="45.24333" lon="5.59192">
        <ele>1227</ele>
        <time>2011-06-10T06:54:30Z</time>
      </trkpt>
      <trkpt lat="45.24327" lon="5.59201">
        <ele>1226</ele>
        <time>2011-06-10T06:54:33Z</time>
      </trkpt>
      <trkpt lat="45.24324" lon="5.59207">
        <ele>1225</ele>
        <time>2011-06-10T06:54:36Z</time>
      </trkpt>
      <trkpt lat="45.2432" lon="5.59211">
        <ele>1224</ele>
        <time>2011-06-10T06:54:38Z</time>
      </trkpt>
      <trkpt lat="45.24315" lon="5.59218">
        <ele>1224</ele>
        <time>2011-06-10T06:54:42Z</time>
      </trkpt>
      <trkpt lat="45.2431" lon="5.59223">
        <ele>1223</ele>
        <time>2011-06-10T06:54:45Z</time>
      </trkpt>
      <trkpt lat="45.24306" lon="5.59228">
        <ele>1224</ele>
        <time>2011-06-10T06:54:48Z</time>
      </trkpt>
      <trkpt lat="45.24301" lon="5.59231">
        <ele>1223</ele>
        <time>2011-06-10T06:54:51Z</time>
      </trkpt>
      <trkpt lat="45.24294" lon="5.5923">
        <ele>1223</ele>
        <time>2011-06-10T06:54:53Z</time>
      </trkpt>
      <trkpt lat="45.24291" lon="5.59236">
        <ele>1223</ele>
        <time>2011-06-10T06:54:55Z</time>
      </trkpt>
      <trkpt lat="45.24286" lon="5.5924">
        <ele>1223</ele>
        <time>2011-06-10T06:54:57Z</time>
      </trkpt>
      <trkpt lat="45.24284" lon="5.59245">
        <ele>1223</ele>
        <time>2011-06-10T06:55:00Z</time>
      </trkpt>
      <trkpt lat="45.24276" lon="5.59243">
        <ele>1222</ele>
        <time>2011-06-10T06:55:02Z</time>
      </trkpt>
      <trkpt lat="45.24273" lon="5.59249">
        <ele>1222</ele>
        <time>2011-06-10T06:56:19Z</time>
      </trkpt>
      <trkpt lat="45.24269" lon="5.59246">
        <ele>1223</ele>
        <time>2011-06-10T06:56:23Z</time>
      </trkpt>
      <trkpt lat="45.24263" lon="5.59253">
        <ele>1223</ele>
        <time>2011-06-10T06:56:27Z</time>
      </trkpt>
      <trkpt lat="45.24257" lon="5.59251">
        <ele>1223</ele>
        <time>2011-06-10T06:56:29Z</time>
      </trkpt>
      <trkpt lat="45.24252" lon="5.59248">
        <ele>1223</ele>
        <time>2011-06-10T06:56:33Z</time>
      </trkpt>
      <trkpt lat="45.24244" lon="5.59257">
        <ele>1223</ele>
        <time>2011-06-10T06:56:34Z</time>
      </trkpt>
      <trkpt lat="45.2424" lon="5.59259">
        <ele>1222</ele>
        <time>2011-06-10T06:56:35Z</time>
      </trkpt>
      <trkpt lat="45.24233" lon="5.59262">
        <ele>1222</ele>
        <time>2011-06-10T06:56:38Z</time>
      </trkpt>
      <trkpt lat="45.24228" lon="5.59265">
        <ele>1221</ele>
        <time>2011-06-10T06:56:40Z</time>
      </trkpt>
      <trkpt lat="45.24222" lon="5.59268">
        <ele>1222</ele>
        <time>2011-06-10T06:56:43Z</time>
      </trkpt>
      <trkpt lat="45.24218" lon="5.59271">
        <ele>1221</ele>
        <time>2011-06-10T06:56:46Z</time>
      </trkpt>
      <trkpt lat="45.24202" lon="5.59283">
        <ele>1221</ele>
        <time>2011-06-10T06:56:51Z</time>
      </trkpt>
      <trkpt lat="45.24194" lon="5.59289">
        <ele>1221</ele>
        <time>2011-06-10T06:56:52Z</time>
      </trkpt>
      <trkpt lat="45.24193" lon="5.59295">
        <ele>1221</ele>
        <time>2011-06-10T06:56:55Z</time>
      </trkpt>
      <trkpt lat="45.2419" lon="5.59302">
        <ele>1222</ele>
        <time>2011-06-10T06:56:57Z</time>
      </trkpt>
      <trkpt lat="45.24185" lon="5.59305">
        <ele>1218</ele>
        <time>2011-06-10T06:58:31Z</time>
      </trkpt>
      <trkpt lat="45.24181" lon="5.59309">
        <ele>1215</ele>
        <time>2011-06-10T06:58:37Z</time>
      </trkpt>
      <trkpt lat="45.24174" lon="5.59303">
        <ele>1214</ele>
        <time>2011-06-10T06:58:40Z</time>
      </trkpt>
      <trkpt lat="45.24156" lon="5.59303">
        <ele>1212</ele>
        <time>2011-06-10T06:58:42Z</time>
      </trkpt>
      <trkpt lat="45.24142" lon="5.593">
        <ele>1211</ele>
        <time>2011-06-10T06:58:45Z</time>
      </trkpt>
      <trkpt lat="45.24132" lon="5.59302">
        <ele>1210</ele>
        <time>2011-06-10T06:58:47Z</time>
      </trkpt>
      <trkpt lat="45.24126" lon="5.59304">
        <ele>1210</ele>
        <time>2011-06-10T06:58:48Z</time>
      </trkpt>
      <trkpt lat="45.2412" lon="5.59303">
        <ele>1209</ele>
        <time>2011-06-10T06:58:49Z</time>
      </trkpt>
      <trkpt lat="45.24115" lon="5.59303">
        <ele>1210</ele>
        <time>2011-06-10T06:58:50Z</time>
      </trkpt>
      <trkpt lat="45.24109" lon="5.59304">
        <ele>1210</ele>
        <time>2011-06-10T06:58:52Z</time>
      </trkpt>
      <trkpt lat="45.241" lon="5.59304">
        <ele>1210</ele>
        <time>2011-06-10T06:58:54Z</time>
      </trkpt>
      <trkpt lat="45.24095" lon="5.59308">
        <ele>1210</ele>
        <time>2011-06-10T06:58:55Z</time>
      </trkpt>
      <trkpt lat="45.2409" lon="5.59309">
        <ele>1210</ele>
        <time>2011-06-10T06:58:56Z</time>
      </trkpt>
      <trkpt lat="45.24084" lon="5.59315">
        <ele>1210</ele>
        <time>2011-06-10T06:58:58Z</time>
      </trkpt>
      <trkpt lat="45.24079" lon="5.59318">
        <ele>1210</ele>
        <time>2011-06-10T06:59:00Z</time>
      </trkpt>
      <trkpt lat="45.24075" lon="5.59323">
        <ele>1210</ele>
        <time>2011-06-10T06:59:02Z</time>
      </trkpt>
      <trkpt lat="45.24072" lon="5.5933">
        <ele>1210</ele>
        <time>2011-06-10T06:59:04Z</time>
      </trkpt>
      <trkpt lat="45.24054" lon="5.59333">
        <ele>1209</ele>
        <time>2011-06-10T06:59:08Z</time>
      </trkpt>
      <trkpt lat="45.24049" lon="5.59337">
        <ele>1210</ele>
        <time>2011-06-10T06:59:10Z</time>
      </trkpt>
      <trkpt lat="45.24041" lon="5.5934">
        <ele>1209</ele>
        <time>2011-06-10T06:59:12Z</time>
      </trkpt>
      <trkpt lat="45.24034" lon="5.59346">
        <ele>1208</ele>
        <time>2011-06-10T06:59:14Z</time>
      </trkpt>
      <trkpt lat="45.24028" lon="5.5935">
        <ele>1211</ele>
        <time>2011-06-10T06:59:17Z</time>
      </trkpt>
      <trkpt lat="45.24023" lon="5.59353">
        <ele>1211</ele>
        <time>2011-06-10T06:59:19Z</time>
      </trkpt>
      <trkpt lat="45.24018" lon="5.59354">
        <ele>1211</ele>
        <time>2011-06-10T06:59:21Z</time>
      </trkpt>
      <trkpt lat="45.2401" lon="5.59358">
        <ele>1213</ele>
        <time>2011-06-10T06:59:23Z</time>
      </trkpt>
      <trkpt lat="45.24006" lon="5.59363">
        <ele>1213</ele>
        <time>2011-06-10T06:59:24Z</time>
      </trkpt>
      <trkpt lat="45.24001" lon="5.59366">
        <ele>1213</ele>
        <time>2011-06-10T06:59:26Z</time>
      </trkpt>
      <trkpt lat="45.23997" lon="5.59371">
        <ele>1213</ele>
        <time>2011-06-10T06:59:28Z</time>
      </trkpt>
      <trkpt lat="45.2399" lon="5.59376">
        <ele>1212</ele>
        <time>2011-06-10T06:59:31Z</time>
      </trkpt>
      <trkpt lat="45.23985" lon="5.59377">
        <ele>1212</ele>
        <time>2011-06-10T06:59:32Z</time>
      </trkpt>
      <trkpt lat="45.23981" lon="5.59384">
        <ele>1213</ele>
        <time>2011-06-10T06:59:33Z</time>
      </trkpt>
      <trkpt lat="45.23976" lon="5.59388">
        <ele>1213</ele>
        <time>2011-06-10T06:59:36Z</time>
      </trkpt>
      <trkpt lat="45.23972" lon="5.59396">
        <ele>1212</ele>
        <time>2011-06-10T06:59:38Z</time>
      </trkpt>
      <trkpt lat="45.23968" lon="5.59402">
        <ele>1212</ele>
        <time>2011-06-10T06:59:40Z</time>
      </trkpt>
      <trkpt lat="45.23966" lon="5.59411">
        <ele>1213</ele>
        <time>2011-06-10T06:59:43Z</time>
      </trkpt>
      <trkpt lat="45.23957" lon="5.59418">
        <ele>1213</ele>
        <time>2011-06-10T06:59:45Z</time>
      </trkpt>
      <trkpt lat="45.23953" lon="5.59429">
        <ele>1213</ele>
        <time>2011-06-10T06:59:47Z</time>
      </trkpt>
      <trkpt lat="45.23949" lon="5.59434">
        <ele>1212</ele>
        <time>2011-06-10T06:59:48Z</time>
      </trkpt>
      <trkpt lat="45.23945" lon="5.59442">
        <ele>1213</ele>
        <time>2011-06-10T06:59:50Z</time>
      </trkpt>
      <trkpt lat="45.23939" lon="5.59449">
        <ele>1212</ele>
        <time>2011-06-10T06:59:52Z</time>
      </trkpt>
      <trkpt lat="45.23932" lon="5.59457">
        <ele>1211</ele>
        <time>2011-06-10T06:59:53Z</time>
      </trkpt>
      <trkpt lat="45.23928" lon="5.59464">
        <ele>1211</ele>
        <time>2011-06-10T06:59:56Z</time>
      </trkpt>
      <trkpt lat="45.23928" lon="5.59471">
        <ele>1212</ele>
        <time>2011-06-10T07:00:03Z</time>
      </trkpt>
      <trkpt lat="45.23925" lon="5.5948">
        <ele>1211</ele>
        <time>2011-06-10T07:00:08Z</time>
      </trkpt>
      <trkpt lat="45.23922" lon="5.59484">
        <ele>1207</ele>
        <time>2011-06-10T07:00:32Z</time>
      </trkpt>
      <trkpt lat="45.23918" lon="5.59487">
        <ele>1206</ele>
        <time>2011-06-10T07:00:34Z</time>
      </trkpt>
      <trkpt lat="45.23912" lon="5.5949">
        <ele>1207</ele>
        <time>2011-06-10T07:00:35Z</time>
      </trkpt>
      <trkpt lat="45.23908" lon="5.59498">
        <ele>1206</ele>
        <time>2011-06-10T07:00:39Z</time>
      </trkpt>
      <trkpt lat="45.23905" lon="5.59504">
        <ele>1206</ele>
        <time>2011-06-10T07:00:41Z</time>
      </trkpt>
      <trkpt lat="45.23903" lon="5.59511">
        <ele>1206</ele>
        <time>2011-06-10T07:00:43Z</time>
      </trkpt>
      <trkpt lat="45.23904" lon="5.59518">
        <ele>1206</ele>
        <time>2011-06-10T07:00:46Z</time>
      </trkpt>
      <trkpt lat="45.2391" lon="5.59522">
        <ele>1206</ele>
        <time>2011-06-10T07:00:47Z</time>
      </trkpt>
      <trkpt lat="45.23914" lon="5.59525">
        <ele>1207</ele>
        <time>2011-06-10T07:00:48Z</time>
      </trkpt>
      <trkpt lat="45.23914" lon="5.59528">
        <ele>1207</ele>
        <time>2011-06-10T07:00:52Z</time>
      </trkpt>
      <trkpt lat="45.2391" lon="5.59533">
        <ele>1207</ele>
        <time>2011-06-10T07:00:53Z</time>
      </trkpt>
      <trkpt lat="45.23902" lon="5.59543">
        <ele>1207</ele>
        <time>2011-06-10T07:00:55Z</time>
      </trkpt>
      <trkpt lat="45.23905" lon="5.59552">
        <ele>1204</ele>
        <time>2011-06-10T07:01:01Z</time>
      </trkpt>
      <trkpt lat="45.23907" lon="5.5956">
        <ele>1204</ele>
        <time>2011-06-10T07:01:04Z</time>
      </trkpt>
      <trkpt lat="45.23905" lon="5.59568">
        <ele>1201</ele>
        <time>2011-06-10T07:01:11Z</time>
      </trkpt>
      <trkpt lat="45.23902" lon="5.59573">
        <ele>1201</ele>
        <time>2011-06-10T07:01:13Z</time>
      </trkpt>
      <trkpt lat="45.23898" lon="5.59582">
        <ele>1201</ele>
        <time>2011-06-10T07:01:17Z</time>
      </trkpt>
      <trkpt lat="45.23898" lon="5.59589">
        <ele>1202</ele>
        <time>2011-06-10T07:01:19Z</time>
      </trkpt>
      <trkpt lat="45.23895" lon="5.59597">
        <ele>1202</ele>
        <time>2011-06-10T07:01:22Z</time>
      </trkpt>
      <trkpt lat="45.23896" lon="5.59604">
        <ele>1203</ele>
        <time>2011-06-10T07:01:25Z</time>
      </trkpt>
      <trkpt lat="45.23896" lon="5.59611">
        <ele>1203</ele>
        <time>2011-06-10T07:01:28Z</time>
      </trkpt>
      <trkpt lat="45.23895" lon="5.59624">
        <ele>1201</ele>
        <time>2011-06-10T07:01:33Z</time>
      </trkpt>
      <trkpt lat="45.23895" lon="5.59635">
        <ele>1203</ele>
        <time>2011-06-10T07:01:38Z</time>
      </trkpt>
      <trkpt lat="45.23893" lon="5.59647">
        <ele>1200</ele>
        <time>2011-06-10T07:01:46Z</time>
      </trkpt>
      <trkpt lat="45.23889" lon="5.5965">
        <ele>1201</ele>
        <time>2011-06-10T07:01:49Z</time>
      </trkpt>
      <trkpt lat="45.23888" lon="5.59657">
        <ele>1202</ele>
        <time>2011-06-10T07:01:54Z</time>
      </trkpt>
      <trkpt lat="45.23888" lon="5.59665">
        <ele>1204</ele>
        <time>2011-06-10T07:02:03Z</time>
      </trkpt>
      <trkpt lat="45.2389" lon="5.59672">
        <ele>1204</ele>
        <time>2011-06-10T07:02:07Z</time>
      </trkpt>
      <trkpt lat="45.23892" lon="5.59686">
        <ele>1204</ele>
        <time>2011-06-10T07:02:45Z</time>
      </trkpt>
      <trkpt lat="45.23896" lon="5.59691">
        <ele>1205</ele>
        <time>2011-06-10T07:02:48Z</time>
      </trkpt>
      <trkpt lat="45.23897" lon="5.59706">
        <ele>1205</ele>
        <time>2011-06-10T07:02:53Z</time>
      </trkpt>
      <trkpt lat="45.23897" lon="5.59713">
        <ele>1206</ele>
        <time>2011-06-10T07:02:55Z</time>
      </trkpt>
      <trkpt lat="45.23899" lon="5.59722">
        <ele>1205</ele>
        <time>2011-06-10T07:02:59Z</time>
      </trkpt>
      <trkpt lat="45.23904" lon="5.59727">
        <ele>1203</ele>
        <time>2011-06-10T07:03:01Z</time>
      </trkpt>
      <trkpt lat="45.23907" lon="5.59732">
        <ele>1200</ele>
        <time>2011-06-10T07:03:04Z</time>
      </trkpt>
      <trkpt lat="45.23912" lon="5.5974">
        <ele>1199</ele>
        <time>2011-06-10T07:03:10Z</time>
      </trkpt>
      <trkpt lat="45.23918" lon="5.59748">
        <ele>1199</ele>
        <time>2011-06-10T07:03:13Z</time>
      </trkpt>
      <trkpt lat="45.23925" lon="5.5975">
        <ele>1199</ele>
        <time>2011-06-10T07:03:16Z</time>
      </trkpt>
      <trkpt lat="45.2393" lon="5.5976">
        <ele>1198</ele>
        <time>2011-06-10T07:03:26Z</time>
      </trkpt>
      <trkpt lat="45.2393" lon="5.59767">
        <ele>1199</ele>
        <time>2011-06-10T07:03:35Z</time>
      </trkpt>
      <trkpt lat="45.23932" lon="5.59772">
        <ele>1197</ele>
        <time>2011-06-10T07:03:38Z</time>
      </trkpt>
      <trkpt lat="45.23931" lon="5.59778">
        <ele>1198</ele>
        <time>2011-06-10T07:03:40Z</time>
      </trkpt>
      <trkpt lat="45.23927" lon="5.59786">
        <ele>1198</ele>
        <time>2011-06-10T07:03:42Z</time>
      </trkpt>
      <trkpt lat="45.23922" lon="5.59795">
        <ele>1198</ele>
        <time>2011-06-10T07:03:45Z</time>
      </trkpt>
      <trkpt lat="45.23917" lon="5.59797">
        <ele>1199</ele>
        <time>2011-06-10T07:03:47Z</time>
      </trkpt>
      <trkpt lat="45.23913" lon="5.59807">
        <ele>1198</ele>
        <time>2011-06-10T07:03:50Z</time>
      </trkpt>
      <trkpt lat="45.23908" lon="5.59811">
        <ele>1198</ele>
        <time>2011-06-10T07:03:53Z</time>
      </trkpt>
      <trkpt lat="45.23902" lon="5.59817">
        <ele>1198</ele>
        <time>2011-06-10T07:03:55Z</time>
      </trkpt>
      <trkpt lat="45.23891" lon="5.59825">
        <ele>1199</ele>
        <time>2011-06-10T07:03:57Z</time>
      </trkpt>
      <trkpt lat="45.2389" lon="5.59833">
        <ele>1199</ele>
        <time>2011-06-10T07:04:00Z</time>
      </trkpt>
      <trkpt lat="45.2389" lon="5.59841">
        <ele>1200</ele>
        <time>2011-06-10T07:04:03Z</time>
      </trkpt>
      <trkpt lat="45.23891" lon="5.59849">
        <ele>1201</ele>
        <time>2011-06-10T07:04:05Z</time>
      </trkpt>
      <trkpt lat="45.23892" lon="5.5986">
        <ele>1201</ele>
        <time>2011-06-10T07:04:07Z</time>
      </trkpt>
      <trkpt lat="45.23895" lon="5.59867">
        <ele>1200</ele>
        <time>2011-06-10T07:04:09Z</time>
      </trkpt>
      <trkpt lat="45.23897" lon="5.59874">
        <ele>1201</ele>
        <time>2011-06-10T07:04:11Z</time>
      </trkpt>
      <trkpt lat="45.23896" lon="5.59884">
        <ele>1202</ele>
        <time>2011-06-10T07:04:14Z</time>
      </trkpt>
      <trkpt lat="45.239" lon="5.59889">
        <ele>1204</ele>
        <time>2011-06-10T07:04:18Z</time>
      </trkpt>
      <trkpt lat="45.23901" lon="5.59896">
        <ele>1204</ele>
        <time>2011-06-10T07:04:20Z</time>
      </trkpt>
      <trkpt lat="45.23902" lon="5.59902">
        <ele>1205</ele>
        <time>2011-06-10T07:04:23Z</time>
      </trkpt>
      <trkpt lat="45.23905" lon="5.59908">
        <ele>1206</ele>
        <time>2011-06-10T07:04:25Z</time>
      </trkpt>
      <trkpt lat="45.23906" lon="5.59919">
        <ele>1205</ele>
        <time>2011-06-10T07:04:27Z</time>
      </trkpt>
      <trkpt lat="45.23908" lon="5.59929">
        <ele>1203</ele>
        <time>2011-06-10T07:04:29Z</time>
      </trkpt>
      <trkpt lat="45.23909" lon="5.59937">
        <ele>1203</ele>
        <time>2011-06-10T07:04:31Z</time>
      </trkpt>
      <trkpt lat="45.23911" lon="5.59944">
        <ele>1202</ele>
        <time>2011-06-10T07:04:33Z</time>
      </trkpt>
      <trkpt lat="45.23914" lon="5.59953">
        <ele>1203</ele>
        <time>2011-06-10T07:04:35Z</time>
      </trkpt>
      <trkpt lat="45.23916" lon="5.5996">
        <ele>1203</ele>
        <time>2011-06-10T07:04:37Z</time>
      </trkpt>
      <trkpt lat="45.23919" lon="5.59968">
        <ele>1203</ele>
        <time>2011-06-10T07:04:40Z</time>
      </trkpt>
      <trkpt lat="45.23923" lon="5.59975">
        <ele>1202</ele>
        <time>2011-06-10T07:04:43Z</time>
      </trkpt>
      <trkpt lat="45.23927" lon="5.59986">
        <ele>1199</ele>
        <time>2011-06-10T07:04:46Z</time>
      </trkpt>
      <trkpt lat="45.23925" lon="5.59992">
        <ele>1200</ele>
        <time>2011-06-10T07:04:48Z</time>
      </trkpt>
      <trkpt lat="45.23928" lon="5.59998">
        <ele>1201</ele>
        <time>2011-06-10T07:04:52Z</time>
      </trkpt>
      <trkpt lat="45.23927" lon="5.60006">
        <ele>1202</ele>
        <time>2011-06-10T07:04:57Z</time>
      </trkpt>
      <trkpt lat="45.23924" lon="5.60014">
        <ele>1201</ele>
        <time>2011-06-10T07:05:00Z</time>
      </trkpt>
      <trkpt lat="45.23924" lon="5.60021">
        <ele>1203</ele>
        <time>2011-06-10T07:05:02Z</time>
      </trkpt>
      <trkpt lat="45.23921" lon="5.60026">
        <ele>1202</ele>
        <time>2011-06-10T07:05:04Z</time>
      </trkpt>
      <trkpt lat="45.23918" lon="5.60034">
        <ele>1201</ele>
        <time>2011-06-10T07:05:06Z</time>
      </trkpt>
      <trkpt lat="45.23914" lon="5.60037">
        <ele>1200</ele>
        <time>2011-06-10T07:05:07Z</time>
      </trkpt>
      <trkpt lat="45.23909" lon="5.60045">
        <ele>1200</ele>
        <time>2011-06-10T07:05:09Z</time>
      </trkpt>
      <trkpt lat="45.23905" lon="5.60052">
        <ele>1200</ele>
        <time>2011-06-10T07:05:11Z</time>
      </trkpt>
      <trkpt lat="45.23904" lon="5.60059">
        <ele>1199</ele>
        <time>2011-06-10T07:05:13Z</time>
      </trkpt>
      <trkpt lat="45.23902" lon="5.60066">
        <ele>1200</ele>
        <time>2011-06-10T07:05:15Z</time>
      </trkpt>
      <trkpt lat="45.239" lon="5.60074">
        <ele>1200</ele>
        <time>2011-06-10T07:05:17Z</time>
      </trkpt>
      <trkpt lat="45.23897" lon="5.6008">
        <ele>1201</ele>
        <time>2011-06-10T07:05:19Z</time>
      </trkpt>
      <trkpt lat="45.23897" lon="5.60088">
        <ele>1202</ele>
        <time>2011-06-10T07:05:21Z</time>
      </trkpt>
      <trkpt lat="45.23895" lon="5.60093">
        <ele>1203</ele>
        <time>2011-06-10T07:05:22Z</time>
      </trkpt>
      <trkpt lat="45.23889" lon="5.60102">
        <ele>1203</ele>
        <time>2011-06-10T07:05:24Z</time>
      </trkpt>
      <trkpt lat="45.23883" lon="5.60112">
        <ele>1204</ele>
        <time>2011-06-10T07:05:26Z</time>
      </trkpt>
      <trkpt lat="45.2388" lon="5.60117">
        <ele>1204</ele>
        <time>2011-06-10T07:05:27Z</time>
      </trkpt>
      <trkpt lat="45.23876" lon="5.60123">
        <ele>1204</ele>
        <time>2011-06-10T07:05:28Z</time>
      </trkpt>
      <trkpt lat="45.23873" lon="5.6013">
        <ele>1204</ele>
        <time>2011-06-10T07:05:29Z</time>
      </trkpt>
      <trkpt lat="45.2387" lon="5.60138">
        <ele>1204</ele>
        <time>2011-06-10T07:05:30Z</time>
      </trkpt>
      <trkpt lat="45.23867" lon="5.60144">
        <ele>1203</ele>
        <time>2011-06-10T07:05:31Z</time>
      </trkpt>
      <trkpt lat="45.23859" lon="5.60155">
        <ele>1203</ele>
        <time>2011-06-10T07:05:33Z</time>
      </trkpt>
      <trkpt lat="45.23859" lon="5.60164">
        <ele>1203</ele>
        <time>2011-06-10T07:05:35Z</time>
      </trkpt>
      <trkpt lat="45.23856" lon="5.60171">
        <ele>1202</ele>
        <time>2011-06-10T07:05:37Z</time>
      </trkpt>
      <trkpt lat="45.23853" lon="5.60177">
        <ele>1203</ele>
        <time>2011-06-10T07:05:39Z</time>
      </trkpt>
      <trkpt lat="45.23851" lon="5.60186">
        <ele>1199</ele>
        <time>2011-06-10T07:05:42Z</time>
      </trkpt>
      <trkpt lat="45.23851" lon="5.60192">
        <ele>1199</ele>
        <time>2011-06-10T07:05:46Z</time>
      </trkpt>
      <trkpt lat="45.23848" lon="5.60198">
        <ele>1200</ele>
        <time>2011-06-10T07:05:48Z</time>
      </trkpt>
      <trkpt lat="45.23842" lon="5.60202">
        <ele>1200</ele>
        <time>2011-06-10T07:05:51Z</time>
      </trkpt>
      <trkpt lat="45.23836" lon="5.60205">
        <ele>1200</ele>
        <time>2011-06-10T07:05:53Z</time>
      </trkpt>
      <trkpt lat="45.2383" lon="5.60211">
        <ele>1200</ele>
        <time>2011-06-10T07:05:55Z</time>
      </trkpt>
      <trkpt lat="45.23825" lon="5.60216">
        <ele>1199</ele>
        <time>2011-06-10T07:05:57Z</time>
      </trkpt>
      <trkpt lat="45.23821" lon="5.60227">
        <ele>1199</ele>
        <time>2011-06-10T07:05:59Z</time>
      </trkpt>
      <trkpt lat="45.23819" lon="5.60236">
        <ele>1197</ele>
        <time>2011-06-10T07:06:00Z</time>
      </trkpt>
      <trkpt lat="45.23816" lon="5.60246">
        <ele>1197</ele>
        <time>2011-06-10T07:06:02Z</time>
      </trkpt>
      <trkpt lat="45.23816" lon="5.60254">
        <ele>1197</ele>
        <time>2011-06-10T07:06:03Z</time>
      </trkpt>
      <trkpt lat="45.23816" lon="5.60261">
        <ele>1197</ele>
        <time>2011-06-10T07:06:04Z</time>
      </trkpt>
      <trkpt lat="45.23815" lon="5.6027">
        <ele>1197</ele>
        <time>2011-06-10T07:06:05Z</time>
      </trkpt>
      <trkpt lat="45.23814" lon="5.60276">
        <ele>1197</ele>
        <time>2011-06-10T07:06:06Z</time>
      </trkpt>
      <trkpt lat="45.23813" lon="5.60295">
        <ele>1197</ele>
        <time>2011-06-10T07:06:08Z</time>
      </trkpt>
      <trkpt lat="45.23815" lon="5.60301">
        <ele>1197</ele>
        <time>2011-06-10T07:06:09Z</time>
      </trkpt>
      <trkpt lat="45.23814" lon="5.60313">
        <ele>1197</ele>
        <time>2011-06-10T07:06:11Z</time>
      </trkpt>
      <trkpt lat="45.23813" lon="5.60321">
        <ele>1197</ele>
        <time>2011-06-10T07:06:13Z</time>
      </trkpt>
      <trkpt lat="45.23808" lon="5.60325">
        <ele>1198</ele>
        <time>2011-06-10T07:06:16Z</time>
      </trkpt>
      <trkpt lat="45.23802" lon="5.60325">
        <ele>1199</ele>
        <time>2011-06-10T07:06:24Z</time>
      </trkpt>
      <trkpt lat="45.23797" lon="5.60324">
        <ele>1199</ele>
        <time>2011-06-10T07:06:26Z</time>
      </trkpt>
      <trkpt lat="45.23791" lon="5.60325">
        <ele>1199</ele>
        <time>2011-06-10T07:06:29Z</time>
      </trkpt>
      <trkpt lat="45.23785" lon="5.6032">
        <ele>1199</ele>
        <time>2011-06-10T07:06:32Z</time>
      </trkpt>
      <trkpt lat="45.23778" lon="5.60319">
        <ele>1198</ele>
        <time>2011-06-10T07:06:34Z</time>
      </trkpt>
      <trkpt lat="45.23774" lon="5.60322">
        <ele>1199</ele>
        <time>2011-06-10T07:06:36Z</time>
      </trkpt>
      <trkpt lat="45.2377" lon="5.60327">
        <ele>1199</ele>
        <time>2011-06-10T07:06:38Z</time>
      </trkpt>
      <trkpt lat="45.23765" lon="5.60332">
        <ele>1199</ele>
        <time>2011-06-10T07:06:40Z</time>
      </trkpt>
      <trkpt lat="45.23764" lon="5.60338">
        <ele>1198</ele>
        <time>2011-06-10T07:06:43Z</time>
      </trkpt>
      <trkpt lat="45.23758" lon="5.60344">
        <ele>1198</ele>
        <time>2011-06-10T07:06:46Z</time>
      </trkpt>
      <trkpt lat="45.23756" lon="5.60351">
        <ele>1198</ele>
        <time>2011-06-10T07:06:48Z</time>
      </trkpt>
      <trkpt lat="45.23751" lon="5.60361">
        <ele>1198</ele>
        <time>2011-06-10T07:06:50Z</time>
      </trkpt>
      <trkpt lat="45.23743" lon="5.6037">
        <ele>1197</ele>
        <time>2011-06-10T07:06:53Z</time>
      </trkpt>
      <trkpt lat="45.23741" lon="5.60377">
        <ele>1197</ele>
        <time>2011-06-10T07:06:54Z</time>
      </trkpt>
      <trkpt lat="45.23739" lon="5.60385">
        <ele>1194</ele>
        <time>2011-06-10T07:06:56Z</time>
      </trkpt>
      <trkpt lat="45.23739" lon="5.60391">
        <ele>1192</ele>
        <time>2011-06-10T07:06:57Z</time>
      </trkpt>
      <trkpt lat="45.23738" lon="5.60406">
        <ele>1188</ele>
        <time>2011-06-10T07:06:59Z</time>
      </trkpt>
      <trkpt lat="45.23737" lon="5.60412">
        <ele>1189</ele>
        <time>2011-06-10T07:07:01Z</time>
      </trkpt>
      <trkpt lat="45.23735" lon="5.60419">
        <ele>1189</ele>
        <time>2011-06-10T07:07:03Z</time>
      </trkpt>
      <trkpt lat="45.23732" lon="5.60428">
        <ele>1183</ele>
        <time>2011-06-10T07:07:05Z</time>
      </trkpt>
      <trkpt lat="45.23735" lon="5.60435">
        <ele>1180</ele>
        <time>2011-06-10T07:07:07Z</time>
      </trkpt>
      <trkpt lat="45.2374" lon="5.6044">
        <ele>1177</ele>
        <time>2011-06-10T07:07:09Z</time>
      </trkpt>
      <trkpt lat="45.23743" lon="5.60449">
        <ele>1175</ele>
        <time>2011-06-10T07:07:11Z</time>
      </trkpt>
      <trkpt lat="45.23744" lon="5.60457">
        <ele>1175</ele>
        <time>2011-06-10T07:07:12Z</time>
      </trkpt>
      <trkpt lat="45.23746" lon="5.60464">
        <ele>1173</ele>
        <time>2011-06-10T07:07:14Z</time>
      </trkpt>
      <trkpt lat="45.23747" lon="5.60471">
        <ele>1171</ele>
        <time>2011-06-10T07:07:16Z</time>
      </trkpt>
      <trkpt lat="45.23747" lon="5.60478">
        <ele>1170</ele>
        <time>2011-06-10T07:07:17Z</time>
      </trkpt>
      <trkpt lat="45.23746" lon="5.60488">
        <ele>1169</ele>
        <time>2011-06-10T07:07:20Z</time>
      </trkpt>
      <trkpt lat="45.23745" lon="5.60496">
        <ele>1167</ele>
        <time>2011-06-10T07:07:24Z</time>
      </trkpt>
      <trkpt lat="45.2375" lon="5.605">
        <ele>1165</ele>
        <time>2011-06-10T07:07:27Z</time>
      </trkpt>
      <trkpt lat="45.23746" lon="5.60508">
        <ele>1165</ele>
        <time>2011-06-10T07:07:30Z</time>
      </trkpt>
      <trkpt lat="45.23742" lon="5.60517">
        <ele>1166</ele>
        <time>2011-06-10T07:07:32Z</time>
      </trkpt>
      <trkpt lat="45.2374" lon="5.60523">
        <ele>1166</ele>
        <time>2011-06-10T07:07:33Z</time>
      </trkpt>
      <trkpt lat="45.23735" lon="5.60527">
        <ele>1164</ele>
        <time>2011-06-10T07:07:35Z</time>
      </trkpt>
      <trkpt lat="45.23732" lon="5.60534">
        <ele>1161</ele>
        <time>2011-06-10T07:07:38Z</time>
      </trkpt>
      <trkpt lat="45.23727" lon="5.60549">
        <ele>1157</ele>
        <time>2011-06-10T07:07:40Z</time>
      </trkpt>
      <trkpt lat="45.23724" lon="5.60558">
        <ele>1154</ele>
        <time>2011-06-10T07:07:41Z</time>
      </trkpt>
      <trkpt lat="45.23717" lon="5.60565">
        <ele>1149</ele>
        <time>2011-06-10T07:07:43Z</time>
      </trkpt>
      <trkpt lat="45.23712" lon="5.6057">
        <ele>1147</ele>
        <time>2011-06-10T07:07:45Z</time>
      </trkpt>
      <trkpt lat="45.23709" lon="5.60578">
        <ele>1146</ele>
        <time>2011-06-10T07:07:47Z</time>
      </trkpt>
      <trkpt lat="45.23703" lon="5.6058">
        <ele>1142</ele>
        <time>2011-06-10T07:07:50Z</time>
      </trkpt>
      <trkpt lat="45.23699" lon="5.60588">
        <ele>1142</ele>
        <time>2011-06-10T07:07:52Z</time>
      </trkpt>
      <trkpt lat="45.237" lon="5.60594">
        <ele>1142</ele>
        <time>2011-06-10T07:07:54Z</time>
      </trkpt>
      <trkpt lat="45.23696" lon="5.60598">
        <ele>1141</ele>
        <time>2011-06-10T07:07:56Z</time>
      </trkpt>
      <trkpt lat="45.23689" lon="5.60608">
        <ele>1140</ele>
        <time>2011-06-10T07:07:58Z</time>
      </trkpt>
      <trkpt lat="45.23686" lon="5.60615">
        <ele>1140</ele>
        <time>2011-06-10T07:08:00Z</time>
      </trkpt>
      <trkpt lat="45.23681" lon="5.60622">
        <ele>1140</ele>
        <time>2011-06-10T07:08:02Z</time>
      </trkpt>
      <trkpt lat="45.23679" lon="5.60628">
        <ele>1139</ele>
        <time>2011-06-10T07:08:03Z</time>
      </trkpt>
      <trkpt lat="45.23675" lon="5.60634">
        <ele>1140</ele>
        <time>2011-06-10T07:08:05Z</time>
      </trkpt>
      <trkpt lat="45.23669" lon="5.6064">
        <ele>1139</ele>
        <time>2011-06-10T07:08:07Z</time>
      </trkpt>
      <trkpt lat="45.23664" lon="5.60648">
        <ele>1138</ele>
        <time>2011-06-10T07:08:09Z</time>
      </trkpt>
      <trkpt lat="45.2366" lon="5.60652">
        <ele>1138</ele>
        <time>2011-06-10T07:08:10Z</time>
      </trkpt>
      <trkpt lat="45.23658" lon="5.60662">
        <ele>1137</ele>
        <time>2011-06-10T07:08:13Z</time>
      </trkpt>
      <trkpt lat="45.23656" lon="5.60668">
        <ele>1136</ele>
        <time>2011-06-10T07:08:15Z</time>
      </trkpt>
      <trkpt lat="45.23654" lon="5.60675">
        <ele>1136</ele>
        <time>2011-06-10T07:08:17Z</time>
      </trkpt>
      <trkpt lat="45.23654" lon="5.60684">
        <ele>1134</ele>
        <time>2011-06-10T07:08:21Z</time>
      </trkpt>
      <trkpt lat="45.23655" lon="5.6069">
        <ele>1133</ele>
        <time>2011-06-10T07:08:24Z</time>
      </trkpt>
      <trkpt lat="45.2366" lon="5.60698">
        <ele>1130</ele>
        <time>2011-06-10T07:08:27Z</time>
      </trkpt>
      <trkpt lat="45.23657" lon="5.60706">
        <ele>1128</ele>
        <time>2011-06-10T07:08:31Z</time>
      </trkpt>
      <trkpt lat="45.23664" lon="5.60709">
        <ele>1127</ele>
        <time>2011-06-10T07:08:35Z</time>
      </trkpt>
      <trkpt lat="45.23661" lon="5.60719">
        <ele>1126</ele>
        <time>2011-06-10T07:08:37Z</time>
      </trkpt>
      <trkpt lat="45.23664" lon="5.60725">
        <ele>1125</ele>
        <time>2011-06-10T07:08:40Z</time>
      </trkpt>
      <trkpt lat="45.23665" lon="5.60732">
        <ele>1123</ele>
        <time>2011-06-10T07:08:42Z</time>
      </trkpt>
      <trkpt lat="45.2367" lon="5.60737">
        <ele>1122</ele>
        <time>2011-06-10T07:08:45Z</time>
      </trkpt>
      <trkpt lat="45.23674" lon="5.60743">
        <ele>1121</ele>
        <time>2011-06-10T07:08:46Z</time>
      </trkpt>
      <trkpt lat="45.23678" lon="5.60749">
        <ele>1120</ele>
        <time>2011-06-10T07:08:48Z</time>
      </trkpt>
      <trkpt lat="45.23681" lon="5.60758">
        <ele>1119</ele>
        <time>2011-06-10T07:08:49Z</time>
      </trkpt>
      <trkpt lat="45.23686" lon="5.60764">
        <ele>1117</ele>
        <time>2011-06-10T07:08:51Z</time>
      </trkpt>
      <trkpt lat="45.23691" lon="5.60774">
        <ele>1116</ele>
        <time>2011-06-10T07:08:53Z</time>
      </trkpt>
      <trkpt lat="45.23693" lon="5.60782">
        <ele>1115</ele>
        <time>2011-06-10T07:08:54Z</time>
      </trkpt>
      <trkpt lat="45.23698" lon="5.6079">
        <ele>1113</ele>
        <time>2011-06-10T07:08:56Z</time>
      </trkpt>
      <trkpt lat="45.23702" lon="5.60797">
        <ele>1113</ele>
        <time>2011-06-10T07:08:57Z</time>
      </trkpt>
      <trkpt lat="45.23704" lon="5.60803">
        <ele>1114</ele>
        <time>2011-06-10T07:08:58Z</time>
      </trkpt>
      <trkpt lat="45.2371" lon="5.60806">
        <ele>1112</ele>
        <time>2011-06-10T07:08:59Z</time>
      </trkpt>
      <trkpt lat="45.23714" lon="5.6081">
        <ele>1112</ele>
        <time>2011-06-10T07:09:00Z</time>
      </trkpt>
      <trkpt lat="45.23719" lon="5.60817">
        <ele>1111</ele>
        <time>2011-06-10T07:09:01Z</time>
      </trkpt>
      <trkpt lat="45.23724" lon="5.60821">
        <ele>1111</ele>
        <time>2011-06-10T07:09:02Z</time>
      </trkpt>
      <trkpt lat="45.23728" lon="5.60826">
        <ele>1111</ele>
        <time>2011-06-10T07:09:03Z</time>
      </trkpt>
      <trkpt lat="45.23734" lon="5.60833">
        <ele>1111</ele>
        <time>2011-06-10T07:09:04Z</time>
      </trkpt>
      <trkpt lat="45.23739" lon="5.60837">
        <ele>1111</ele>
        <time>2011-06-10T07:09:05Z</time>
      </trkpt>
      <trkpt lat="45.23743" lon="5.60841">
        <ele>1110</ele>
        <time>2011-06-10T07:09:06Z</time>
      </trkpt>
      <trkpt lat="45.23748" lon="5.60846">
        <ele>1110</ele>
        <time>2011-06-10T07:09:07Z</time>
      </trkpt>
      <trkpt lat="45.23755" lon="5.60852">
        <ele>1108</ele>
        <time>2011-06-10T07:09:09Z</time>
      </trkpt>
      <trkpt lat="45.23758" lon="5.60862">
        <ele>1108</ele>
        <time>2011-06-10T07:09:11Z</time>
      </trkpt>
      <trkpt lat="45.23761" lon="5.60869">
        <ele>1108</ele>
        <time>2011-06-10T07:09:12Z</time>
      </trkpt>
      <trkpt lat="45.23765" lon="5.60866">
        <ele>1107</ele>
        <time>2011-06-10T07:09:13Z</time>
      </trkpt>
      <trkpt lat="45.23772" lon="5.60886">
        <ele>1105</ele>
        <time>2011-06-10T07:09:15Z</time>
      </trkpt>
      <trkpt lat="45.23778" lon="5.60887">
        <ele>1102</ele>
        <time>2011-06-10T07:09:16Z</time>
      </trkpt>
      <trkpt lat="45.23783" lon="5.60886">
        <ele>1102</ele>
        <time>2011-06-10T07:09:17Z</time>
      </trkpt>
      <trkpt lat="45.2379" lon="5.60884">
        <ele>1100</ele>
        <time>2011-06-10T07:09:18Z</time>
      </trkpt>
      <trkpt lat="45.23801" lon="5.60885">
        <ele>1099</ele>
        <time>2011-06-10T07:09:20Z</time>
      </trkpt>
      <trkpt lat="45.23807" lon="5.60898">
        <ele>1090</ele>
        <time>2011-06-10T07:09:21Z</time>
      </trkpt>
      <trkpt lat="45.23812" lon="5.609">
        <ele>1089</ele>
        <time>2011-06-10T07:09:22Z</time>
      </trkpt>
      <trkpt lat="45.23818" lon="5.60902">
        <ele>1089</ele>
        <time>2011-06-10T07:09:23Z</time>
      </trkpt>
      <trkpt lat="45.23823" lon="5.60905">
        <ele>1088</ele>
        <time>2011-06-10T07:09:24Z</time>
      </trkpt>
      <trkpt lat="45.23826" lon="5.60911">
        <ele>1086</ele>
        <time>2011-06-10T07:09:26Z</time>
      </trkpt>
      <trkpt lat="45.23831" lon="5.60915">
        <ele>1081</ele>
        <time>2011-06-10T07:09:27Z</time>
      </trkpt>
      <trkpt lat="45.23838" lon="5.6092">
        <ele>1080</ele>
        <time>2011-06-10T07:09:29Z</time>
      </trkpt>
      <trkpt lat="45.23843" lon="5.60926">
        <ele>1074</ele>
        <time>2011-06-10T07:09:31Z</time>
      </trkpt>
      <trkpt lat="45.2385" lon="5.6093">
        <ele>1068</ele>
        <time>2011-06-10T07:09:33Z</time>
      </trkpt>
      <trkpt lat="45.23854" lon="5.60931">
        <ele>1065</ele>
        <time>2011-06-10T07:09:36Z</time>
      </trkpt>
      <trkpt lat="45.23858" lon="5.60935">
        <ele>1061</ele>
        <time>2011-06-10T07:09:38Z</time>
      </trkpt>
      <trkpt lat="45.2386" lon="5.60944">
        <ele>1055</ele>
        <time>2011-06-10T07:09:41Z</time>
      </trkpt>
      <trkpt lat="45.23865" lon="5.60948">
        <ele>1050</ele>
        <time>2011-06-10T07:09:43Z</time>
      </trkpt>
      <trkpt lat="45.23871" lon="5.60951">
        <ele>1046</ele>
        <time>2011-06-10T07:09:45Z</time>
      </trkpt>
      <trkpt lat="45.23876" lon="5.60956">
        <ele>1043</ele>
        <time>2011-06-10T07:09:47Z</time>
      </trkpt>
      <trkpt lat="45.2388" lon="5.60961">
        <ele>1039</ele>
        <time>2011-06-10T07:09:49Z</time>
      </trkpt>
      <trkpt lat="45.23887" lon="5.60967">
        <ele>1032</ele>
        <time>2011-06-10T07:09:52Z</time>
      </trkpt>
      <trkpt lat="45.23892" lon="5.60971">
        <ele>1031</ele>
        <time>2011-06-10T07:09:54Z</time>
      </trkpt>
      <trkpt lat="45.23897" lon="5.60974">
        <ele>1029</ele>
        <time>2011-06-10T07:09:55Z</time>
      </trkpt>
      <trkpt lat="45.23901" lon="5.60977">
        <ele>1027</ele>
        <time>2011-06-10T07:09:56Z</time>
      </trkpt>
      <trkpt lat="45.23906" lon="5.60984">
        <ele>1023</ele>
        <time>2011-06-10T07:09:58Z</time>
      </trkpt>
      <trkpt lat="45.23911" lon="5.60989">
        <ele>1020</ele>
        <time>2011-06-10T07:10:00Z</time>
      </trkpt>
      <trkpt lat="45.23919" lon="5.6099">
        <ele>1015</ele>
        <time>2011-06-10T07:10:02Z</time>
      </trkpt>
      <trkpt lat="45.23924" lon="5.60991">
        <ele>1011</ele>
        <time>2011-06-10T07:10:04Z</time>
      </trkpt>
      <trkpt lat="45.2393" lon="5.60994">
        <ele>1010</ele>
        <time>2011-06-10T07:10:06Z</time>
      </trkpt>
      <trkpt lat="45.23935" lon="5.60997">
        <ele>1008</ele>
        <time>2011-06-10T07:10:08Z</time>
      </trkpt>
      <trkpt lat="45.23941" lon="5.61">
        <ele>1007</ele>
        <time>2011-06-10T07:10:10Z</time>
      </trkpt>
      <trkpt lat="45.23942" lon="5.61005">
        <ele>1006</ele>
        <time>2011-06-10T07:10:12Z</time>
      </trkpt>
      <trkpt lat="45.23946" lon="5.61014">
        <ele>994</ele>
        <time>2011-06-10T07:10:24Z</time>
      </trkpt>
      <trkpt lat="45.23952" lon="5.61025">
        <ele>966</ele>
        <time>2011-06-10T07:15:45Z</time>
      </trkpt>
      <trkpt lat="45.23957" lon="5.61032">
        <ele>960</ele>
        <time>2011-06-10T07:15:47Z</time>
      </trkpt>
      <trkpt lat="45.23962" lon="5.61036">
        <ele>958</ele>
        <time>2011-06-10T07:15:50Z</time>
      </trkpt>
      <trkpt lat="45.23966" lon="5.61042">
        <ele>957</ele>
        <time>2011-06-10T07:15:53Z</time>
      </trkpt>
      <trkpt lat="45.23969" lon="5.6105">
        <ele>954</ele>
        <time>2011-06-10T07:15:55Z</time>
      </trkpt>
      <trkpt lat="45.23973" lon="5.61056">
        <ele>952</ele>
        <time>2011-06-10T07:15:58Z</time>
      </trkpt>
      <trkpt lat="45.23972" lon="5.61068">
        <ele>950</ele>
        <time>2011-06-10T07:16:01Z</time>
      </trkpt>
      <trkpt lat="45.23971" lon="5.61075">
        <ele>949</ele>
        <time>2011-06-10T07:16:02Z</time>
      </trkpt>
      <trkpt lat="45.23974" lon="5.61083">
        <ele>948</ele>
        <time>2011-06-10T07:16:04Z</time>
      </trkpt>
      <trkpt lat="45.23976" lon="5.61094">
        <ele>947</ele>
        <time>2011-06-10T07:16:06Z</time>
      </trkpt>
      <trkpt lat="45.23978" lon="5.61101">
        <ele>948</ele>
        <time>2011-06-10T07:16:07Z</time>
      </trkpt>
      <trkpt lat="45.23978" lon="5.6111">
        <ele>946</ele>
        <time>2011-06-10T07:16:08Z</time>
      </trkpt>
      <trkpt lat="45.23979" lon="5.6112">
        <ele>945</ele>
        <time>2011-06-10T07:16:10Z</time>
      </trkpt>
      <trkpt lat="45.23977" lon="5.61132">
        <ele>944</ele>
        <time>2011-06-10T07:16:12Z</time>
      </trkpt>
      <trkpt lat="45.23976" lon="5.61138">
        <ele>944</ele>
        <time>2011-06-10T07:16:13Z</time>
      </trkpt>
      <trkpt lat="45.23976" lon="5.61146">
        <ele>943</ele>
        <time>2011-06-10T07:16:15Z</time>
      </trkpt>
      <trkpt lat="45.23969" lon="5.61155">
        <ele>944</ele>
        <time>2011-06-10T07:16:17Z</time>
      </trkpt>
      <trkpt lat="45.23965" lon="5.61164">
        <ele>943</ele>
        <time>2011-06-10T07:16:20Z</time>
      </trkpt>
      <trkpt lat="45.2396" lon="5.61167">
        <ele>942</ele>
        <time>2011-06-10T07:16:22Z</time>
      </trkpt>
      <trkpt lat="45.23953" lon="5.6117">
        <ele>941</ele>
        <time>2011-06-10T07:16:24Z</time>
      </trkpt>
      <trkpt lat="45.23948" lon="5.61176">
        <ele>941</ele>
        <time>2011-06-10T07:16:26Z</time>
      </trkpt>
      <trkpt lat="45.2394" lon="5.61181">
        <ele>941</ele>
        <time>2011-06-10T07:16:29Z</time>
      </trkpt>
      <trkpt lat="45.23934" lon="5.61183">
        <ele>941</ele>
        <time>2011-06-10T07:16:31Z</time>
      </trkpt>
      <trkpt lat="45.23928" lon="5.61188">
        <ele>941</ele>
        <time>2011-06-10T07:16:33Z</time>
      </trkpt>
      <trkpt lat="45.23919" lon="5.61196">
        <ele>941</ele>
        <time>2011-06-10T07:16:35Z</time>
      </trkpt>
      <trkpt lat="45.23914" lon="5.61199">
        <ele>941</ele>
        <time>2011-06-10T07:16:36Z</time>
      </trkpt>
      <trkpt lat="45.23909" lon="5.61204">
        <ele>941</ele>
        <time>2011-06-10T07:16:38Z</time>
      </trkpt>
      <trkpt lat="45.23904" lon="5.61202">
        <ele>942</ele>
        <time>2011-06-10T07:16:40Z</time>
      </trkpt>
      <trkpt lat="45.23895" lon="5.61201">
        <ele>941</ele>
        <time>2011-06-10T07:16:42Z</time>
      </trkpt>
      <trkpt lat="45.23885" lon="5.61208">
        <ele>942</ele>
        <time>2011-06-10T07:16:45Z</time>
      </trkpt>
      <trkpt lat="45.23879" lon="5.61214">
        <ele>941</ele>
        <time>2011-06-10T07:16:47Z</time>
      </trkpt>
      <trkpt lat="45.23872" lon="5.61219">
        <ele>941</ele>
        <time>2011-06-10T07:16:49Z</time>
      </trkpt>
      <trkpt lat="45.23866" lon="5.6122">
        <ele>941</ele>
        <time>2011-06-10T07:16:51Z</time>
      </trkpt>
      <trkpt lat="45.23863" lon="5.61225">
        <ele>941</ele>
        <time>2011-06-10T07:16:52Z</time>
      </trkpt>
      <trkpt lat="45.23856" lon="5.61226">
        <ele>941</ele>
        <time>2011-06-10T07:16:54Z</time>
      </trkpt>
      <trkpt lat="45.23853" lon="5.61232">
        <ele>941</ele>
        <time>2011-06-10T07:16:56Z</time>
      </trkpt>
      <trkpt lat="45.23848" lon="5.61233">
        <ele>940</ele>
        <time>2011-06-10T07:16:58Z</time>
      </trkpt>
      <trkpt lat="45.23842" lon="5.61235">
        <ele>940</ele>
        <time>2011-06-10T07:17:00Z</time>
      </trkpt>
      <trkpt lat="45.23836" lon="5.61234">
        <ele>939</ele>
        <time>2011-06-10T07:17:02Z</time>
      </trkpt>
      <trkpt lat="45.23829" lon="5.61242">
        <ele>938</ele>
        <time>2011-06-10T07:17:04Z</time>
      </trkpt>
      <trkpt lat="45.23824" lon="5.61242">
        <ele>939</ele>
        <time>2011-06-10T07:17:06Z</time>
      </trkpt>
      <trkpt lat="45.2382" lon="5.61247">
        <ele>937</ele>
        <time>2011-06-10T07:17:11Z</time>
      </trkpt>
      <trkpt lat="45.23816" lon="5.61248">
        <ele>933</ele>
        <time>2011-06-10T07:17:29Z</time>
      </trkpt>
      <trkpt lat="45.23808" lon="5.61254">
        <ele>932</ele>
        <time>2011-06-10T07:17:31Z</time>
      </trkpt>
      <trkpt lat="45.23801" lon="5.61258">
        <ele>932</ele>
        <time>2011-06-10T07:17:33Z</time>
      </trkpt>
      <trkpt lat="45.23793" lon="5.61263">
        <ele>932</ele>
        <time>2011-06-10T07:17:34Z</time>
      </trkpt>
      <trkpt lat="45.23786" lon="5.61267">
        <ele>932</ele>
        <time>2011-06-10T07:17:35Z</time>
      </trkpt>
      <trkpt lat="45.23777" lon="5.61273">
        <ele>932</ele>
        <time>2011-06-10T07:17:37Z</time>
      </trkpt>
      <trkpt lat="45.23772" lon="5.61274">
        <ele>931</ele>
        <time>2011-06-10T07:17:41Z</time>
      </trkpt>
      <trkpt lat="45.23768" lon="5.61278">
        <ele>931</ele>
        <time>2011-06-10T07:17:42Z</time>
      </trkpt>
      <trkpt lat="45.23764" lon="5.61283">
        <ele>928</ele>
        <time>2011-06-10T07:17:50Z</time>
      </trkpt>
      <trkpt lat="45.23759" lon="5.61289">
        <ele>928</ele>
        <time>2011-06-10T07:17:53Z</time>
      </trkpt>
      <trkpt lat="45.23751" lon="5.61294">
        <ele>928</ele>
        <time>2011-06-10T07:17:55Z</time>
      </trkpt>
      <trkpt lat="45.23746" lon="5.61298">
        <ele>925</ele>
        <time>2011-06-10T07:17:59Z</time>
      </trkpt>
      <trkpt lat="45.23746" lon="5.61306">
        <ele>925</ele>
        <time>2011-06-10T07:18:02Z</time>
      </trkpt>
      <trkpt lat="45.23741" lon="5.61312">
        <ele>925</ele>
        <time>2011-06-10T07:18:06Z</time>
      </trkpt>
      <trkpt lat="45.23738" lon="5.6132">
        <ele>925</ele>
        <time>2011-06-10T07:18:12Z</time>
      </trkpt>
      <trkpt lat="45.23736" lon="5.61327">
        <ele>925</ele>
        <time>2011-06-10T07:18:14Z</time>
      </trkpt>
      <trkpt lat="45.23729" lon="5.61326">
        <ele>924</ele>
        <time>2011-06-10T07:18:16Z</time>
      </trkpt>
      <trkpt lat="45.23725" lon="5.61333">
        <ele>924</ele>
        <time>2011-06-10T07:18:23Z</time>
      </trkpt>
      <trkpt lat="45.23719" lon="5.61332">
        <ele>924</ele>
        <time>2011-06-10T07:18:26Z</time>
      </trkpt>
      <trkpt lat="45.23714" lon="5.61334">
        <ele>924</ele>
        <time>2011-06-10T07:18:28Z</time>
      </trkpt>
      <trkpt lat="45.23708" lon="5.61333">
        <ele>924</ele>
        <time>2011-06-10T07:18:30Z</time>
      </trkpt>
      <trkpt lat="45.23702" lon="5.61338">
        <ele>924</ele>
        <time>2011-06-10T07:18:32Z</time>
      </trkpt>
      <trkpt lat="45.23697" lon="5.6134">
        <ele>924</ele>
        <time>2011-06-10T07:18:34Z</time>
      </trkpt>
      <trkpt lat="45.23694" lon="5.61344">
        <ele>923</ele>
        <time>2011-06-10T07:18:35Z</time>
      </trkpt>
      <trkpt lat="45.23688" lon="5.61356">
        <ele>922</ele>
        <time>2011-06-10T07:18:38Z</time>
      </trkpt>
      <trkpt lat="45.23683" lon="5.6136">
        <ele>920</ele>
        <time>2011-06-10T07:18:39Z</time>
      </trkpt>
      <trkpt lat="45.23678" lon="5.61365">
        <ele>921</ele>
        <time>2011-06-10T07:18:41Z</time>
      </trkpt>
      <trkpt lat="45.23674" lon="5.61371">
        <ele>919</ele>
        <time>2011-06-10T07:18:42Z</time>
      </trkpt>
      <trkpt lat="45.2367" lon="5.61378">
        <ele>919</ele>
        <time>2011-06-10T07:18:43Z</time>
      </trkpt>
      <trkpt lat="45.23666" lon="5.61389">
        <ele>918</ele>
        <time>2011-06-10T07:18:45Z</time>
      </trkpt>
      <trkpt lat="45.23662" lon="5.61394">
        <ele>918</ele>
        <time>2011-06-10T07:18:46Z</time>
      </trkpt>
      <trkpt lat="45.23658" lon="5.61404">
        <ele>917</ele>
        <time>2011-06-10T07:18:48Z</time>
      </trkpt>
      <trkpt lat="45.23652" lon="5.61412">
        <ele>917</ele>
        <time>2011-06-10T07:18:50Z</time>
      </trkpt>
      <trkpt lat="45.23646" lon="5.61422">
        <ele>917</ele>
        <time>2011-06-10T07:18:52Z</time>
      </trkpt>
      <trkpt lat="45.23642" lon="5.61426">
        <ele>917</ele>
        <time>2011-06-10T07:18:53Z</time>
      </trkpt>
      <trkpt lat="45.23636" lon="5.61431">
        <ele>917</ele>
        <time>2011-06-10T07:18:54Z</time>
      </trkpt>
      <trkpt lat="45.23634" lon="5.61441">
        <ele>917</ele>
        <time>2011-06-10T07:18:55Z</time>
      </trkpt>
      <trkpt lat="45.23631" lon="5.61447">
        <ele>917</ele>
        <time>2011-06-10T07:18:56Z</time>
      </trkpt>
      <trkpt lat="45.23626" lon="5.61451">
        <ele>917</ele>
        <time>2011-06-10T07:18:57Z</time>
      </trkpt>
      <trkpt lat="45.23622" lon="5.61456">
        <ele>917</ele>
        <time>2011-06-10T07:18:58Z</time>
      </trkpt>
      <trkpt lat="45.23621" lon="5.61469">
        <ele>916</ele>
        <time>2011-06-10T07:18:59Z</time>
      </trkpt>
      <trkpt lat="45.23616" lon="5.61479">
        <ele>915</ele>
        <time>2011-06-10T07:19:00Z</time>
      </trkpt>
      <trkpt lat="45.23608" lon="5.61487">
        <ele>914</ele>
        <time>2011-06-10T07:19:03Z</time>
      </trkpt>
      <trkpt lat="45.23603" lon="5.61491">
        <ele>914</ele>
        <time>2011-06-10T07:19:04Z</time>
      </trkpt>
      <trkpt lat="45.23599" lon="5.61493">
        <ele>914</ele>
        <time>2011-06-10T07:19:05Z</time>
      </trkpt>
      <trkpt lat="45.23596" lon="5.61485">
        <ele>907</ele>
        <time>2011-06-10T07:19:40Z</time>
      </trkpt>
      <trkpt lat="45.23592" lon="5.6148">
        <ele>907</ele>
        <time>2011-06-10T07:19:42Z</time>
      </trkpt>
      <trkpt lat="45.23574" lon="5.6147">
        <ele>903</ele>
        <time>2011-06-10T07:19:45Z</time>
      </trkpt>
      <trkpt lat="45.23567" lon="5.61472">
        <ele>904</ele>
        <time>2011-06-10T07:19:47Z</time>
      </trkpt>
      <trkpt lat="45.23561" lon="5.61472">
        <ele>903</ele>
        <time>2011-06-10T07:19:48Z</time>
      </trkpt>
      <trkpt lat="45.23556" lon="5.61467">
        <ele>901</ele>
        <time>2011-06-10T07:19:50Z</time>
      </trkpt>
      <trkpt lat="45.23549" lon="5.61468">
        <ele>900</ele>
        <time>2011-06-10T07:19:52Z</time>
      </trkpt>
      <trkpt lat="45.23544" lon="5.61469">
        <ele>899</ele>
        <time>2011-06-10T07:19:53Z</time>
      </trkpt>
      <trkpt lat="45.23536" lon="5.61472">
        <ele>897</ele>
        <time>2011-06-10T07:19:55Z</time>
      </trkpt>
      <trkpt lat="45.2353" lon="5.61473">
        <ele>897</ele>
        <time>2011-06-10T07:19:57Z</time>
      </trkpt>
      <trkpt lat="45.23524" lon="5.61475">
        <ele>896</ele>
        <time>2011-06-10T07:19:59Z</time>
      </trkpt>
      <trkpt lat="45.23519" lon="5.61478">
        <ele>896</ele>
        <time>2011-06-10T07:20:01Z</time>
      </trkpt>
      <trkpt lat="45.23514" lon="5.61481">
        <ele>896</ele>
        <time>2011-06-10T07:20:03Z</time>
      </trkpt>
      <trkpt lat="45.23512" lon="5.61488">
        <ele>895</ele>
        <time>2011-06-10T07:20:06Z</time>
      </trkpt>
      <trkpt lat="45.2351" lon="5.61495">
        <ele>895</ele>
        <time>2011-06-10T07:20:07Z</time>
      </trkpt>
      <trkpt lat="45.23512" lon="5.61509">
        <ele>893</ele>
        <time>2011-06-10T07:20:08Z</time>
      </trkpt>
      <trkpt lat="45.23508" lon="5.61516">
        <ele>893</ele>
        <time>2011-06-10T07:20:10Z</time>
      </trkpt>
      <trkpt lat="45.23504" lon="5.61519">
        <ele>892</ele>
        <time>2011-06-10T07:20:12Z</time>
      </trkpt>
      <trkpt lat="45.23501" lon="5.61525">
        <ele>890</ele>
        <time>2011-06-10T07:20:13Z</time>
      </trkpt>
      <trkpt lat="45.23498" lon="5.6153">
        <ele>890</ele>
        <time>2011-06-10T07:20:15Z</time>
      </trkpt>
      <trkpt lat="45.23494" lon="5.61535">
        <ele>890</ele>
        <time>2011-06-10T07:20:16Z</time>
      </trkpt>
      <trkpt lat="45.23493" lon="5.61544">
        <ele>890</ele>
        <time>2011-06-10T07:20:18Z</time>
      </trkpt>
      <trkpt lat="45.23484" lon="5.61544">
        <ele>889</ele>
        <time>2011-06-10T07:20:20Z</time>
      </trkpt>
      <trkpt lat="45.23482" lon="5.61552">
        <ele>888</ele>
        <time>2011-06-10T07:20:23Z</time>
      </trkpt>
      <trkpt lat="45.23481" lon="5.61561">
        <ele>886</ele>
        <time>2011-06-10T07:20:25Z</time>
      </trkpt>
      <trkpt lat="45.23477" lon="5.61566">
        <ele>885</ele>
        <time>2011-06-10T07:20:28Z</time>
      </trkpt>
      <trkpt lat="45.23476" lon="5.61575">
        <ele>883</ele>
        <time>2011-06-10T07:20:30Z</time>
      </trkpt>
      <trkpt lat="45.23476" lon="5.61582">
        <ele>883</ele>
        <time>2011-06-10T07:20:33Z</time>
      </trkpt>
      <trkpt lat="45.23472" lon="5.61587">
        <ele>883</ele>
        <time>2011-06-10T07:20:34Z</time>
      </trkpt>
      <trkpt lat="45.23471" lon="5.61596">
        <ele>883</ele>
        <time>2011-06-10T07:20:42Z</time>
      </trkpt>
      <trkpt lat="45.23472" lon="5.61607">
        <ele>883</ele>
        <time>2011-06-10T07:20:47Z</time>
      </trkpt>
      <trkpt lat="45.23486" lon="5.61617">
        <ele>884</ele>
        <time>2011-06-10T07:20:55Z</time>
      </trkpt>
      <trkpt lat="45.23489" lon="5.61623">
        <ele>884</ele>
        <time>2011-06-10T07:20:58Z</time>
      </trkpt>
      <trkpt lat="45.23486" lon="5.6163">
        <ele>882</ele>
        <time>2011-06-10T07:21:09Z</time>
      </trkpt>
      <trkpt lat="45.23488" lon="5.61637">
        <ele>881</ele>
        <time>2011-06-10T07:21:12Z</time>
      </trkpt>
      <trkpt lat="45.23489" lon="5.61644">
        <ele>878</ele>
        <time>2011-06-10T07:21:14Z</time>
      </trkpt>
      <trkpt lat="45.23494" lon="5.61649">
        <ele>877</ele>
        <time>2011-06-10T07:21:16Z</time>
      </trkpt>
      <trkpt lat="45.235" lon="5.61652">
        <ele>874</ele>
        <time>2011-06-10T07:21:18Z</time>
      </trkpt>
      <trkpt lat="45.23502" lon="5.61659">
        <ele>872</ele>
        <time>2011-06-10T07:21:20Z</time>
      </trkpt>
      <trkpt lat="45.23507" lon="5.61664">
        <ele>872</ele>
        <time>2011-06-10T07:21:25Z</time>
      </trkpt>
      <trkpt lat="45.23508" lon="5.61673">
        <ele>869</ele>
        <time>2011-06-10T07:21:27Z</time>
      </trkpt>
      <trkpt lat="45.23508" lon="5.61681">
        <ele>868</ele>
        <time>2011-06-10T07:21:30Z</time>
      </trkpt>
      <trkpt lat="45.23502" lon="5.61683">
        <ele>861</ele>
        <time>2011-06-10T07:21:46Z</time>
      </trkpt>
      <trkpt lat="45.23499" lon="5.61687">
        <ele>861</ele>
        <time>2011-06-10T07:21:48Z</time>
      </trkpt>
      <trkpt lat="45.23495" lon="5.61695">
        <ele>860</ele>
        <time>2011-06-10T07:21:50Z</time>
      </trkpt>
      <trkpt lat="45.2349" lon="5.61698">
        <ele>860</ele>
        <time>2011-06-10T07:21:52Z</time>
      </trkpt>
      <trkpt lat="45.23485" lon="5.61701">
        <ele>859</ele>
        <time>2011-06-10T07:21:54Z</time>
      </trkpt>
      <trkpt lat="45.23474" lon="5.6171">
        <ele>855</ele>
        <time>2011-06-10T07:21:58Z</time>
      </trkpt>
      <trkpt lat="45.23468" lon="5.61717">
        <ele>855</ele>
        <time>2011-06-10T07:22:00Z</time>
      </trkpt>
      <trkpt lat="45.23459" lon="5.61719">
        <ele>852</ele>
        <time>2011-06-10T07:22:02Z</time>
      </trkpt>
      <trkpt lat="45.23453" lon="5.61722">
        <ele>849</ele>
        <time>2011-06-10T07:22:04Z</time>
      </trkpt>
      <trkpt lat="45.23449" lon="5.6173">
        <ele>848</ele>
        <time>2011-06-10T07:22:06Z</time>
      </trkpt>
      <trkpt lat="45.23447" lon="5.61738">
        <ele>846</ele>
        <time>2011-06-10T07:22:08Z</time>
      </trkpt>
      <trkpt lat="45.23442" lon="5.61747">
        <ele>845</ele>
        <time>2011-06-10T07:22:11Z</time>
      </trkpt>
      <trkpt lat="45.23438" lon="5.61755">
        <ele>844</ele>
        <time>2011-06-10T07:22:13Z</time>
      </trkpt>
      <trkpt lat="45.23433" lon="5.61761">
        <ele>843</ele>
        <time>2011-06-10T07:22:15Z</time>
      </trkpt>
      <trkpt lat="45.23427" lon="5.6177">
        <ele>843</ele>
        <time>2011-06-10T07:22:17Z</time>
      </trkpt>
      <trkpt lat="45.23422" lon="5.61782">
        <ele>842</ele>
        <time>2011-06-10T07:22:19Z</time>
      </trkpt>
      <trkpt lat="45.23419" lon="5.61789">
        <ele>840</ele>
        <time>2011-06-10T07:22:20Z</time>
      </trkpt>
      <trkpt lat="45.23416" lon="5.61796">
        <ele>840</ele>
        <time>2011-06-10T07:22:21Z</time>
      </trkpt>
      <trkpt lat="45.23412" lon="5.61803">
        <ele>839</ele>
        <time>2011-06-10T07:22:22Z</time>
      </trkpt>
      <trkpt lat="45.23407" lon="5.61814">
        <ele>835</ele>
        <time>2011-06-10T07:22:24Z</time>
      </trkpt>
      <trkpt lat="45.23404" lon="5.61819">
        <ele>835</ele>
        <time>2011-06-10T07:22:25Z</time>
      </trkpt>
      <trkpt lat="45.23399" lon="5.61827">
        <ele>833</ele>
        <time>2011-06-10T07:22:26Z</time>
      </trkpt>
      <trkpt lat="45.23385" lon="5.6183">
        <ele>825</ele>
        <time>2011-06-10T07:22:27Z</time>
      </trkpt>
      <trkpt lat="45.2338" lon="5.61833">
        <ele>822</ele>
        <time>2011-06-10T07:22:28Z</time>
      </trkpt>
      <trkpt lat="45.23375" lon="5.61837">
        <ele>820</ele>
        <time>2011-06-10T07:22:29Z</time>
      </trkpt>
      <trkpt lat="45.2337" lon="5.61847">
        <ele>815</ele>
        <time>2011-06-10T07:22:31Z</time>
      </trkpt>
      <trkpt lat="45.23365" lon="5.61852">
        <ele>799</ele>
        <time>2011-06-10T07:22:35Z</time>
      </trkpt>
      <trkpt lat="45.23366" lon="5.61862">
        <ele>795</ele>
        <time>2011-06-10T07:22:37Z</time>
      </trkpt>
      <trkpt lat="45.23371" lon="5.6187">
        <ele>793</ele>
        <time>2011-06-10T07:22:39Z</time>
      </trkpt>
      <trkpt lat="45.2338" lon="5.61875">
        <ele>792</ele>
        <time>2011-06-10T07:22:41Z</time>
      </trkpt>
      <trkpt lat="45.23384" lon="5.61879">
        <ele>790</ele>
        <time>2011-06-10T07:22:42Z</time>
      </trkpt>
      <trkpt lat="45.23389" lon="5.61882">
        <ele>790</ele>
        <time>2011-06-10T07:22:43Z</time>
      </trkpt>
      <trkpt lat="45.23399" lon="5.6189">
        <ele>788</ele>
        <time>2011-06-10T07:22:45Z</time>
      </trkpt>
      <trkpt lat="45.23406" lon="5.61892">
        <ele>787</ele>
        <time>2011-06-10T07:22:46Z</time>
      </trkpt>
      <trkpt lat="45.23416" lon="5.6189">
        <ele>786</ele>
        <time>2011-06-10T07:22:47Z</time>
      </trkpt>
      <trkpt lat="45.23423" lon="5.61893">
        <ele>785</ele>
        <time>2011-06-10T07:22:48Z</time>
      </trkpt>
      <trkpt lat="45.23432" lon="5.61896">
        <ele>784</ele>
        <time>2011-06-10T07:22:49Z</time>
      </trkpt>
      <trkpt lat="45.23441" lon="5.61898">
        <ele>783</ele>
        <time>2011-06-10T07:22:50Z</time>
      </trkpt>
      <trkpt lat="45.23449" lon="5.61904">
        <ele>782</ele>
        <time>2011-06-10T07:22:51Z</time>
      </trkpt>
      <trkpt lat="45.23459" lon="5.61908">
        <ele>781</ele>
        <time>2011-06-10T07:22:52Z</time>
      </trkpt>
      <trkpt lat="45.23465" lon="5.6191">
        <ele>781</ele>
        <time>2011-06-10T07:22:53Z</time>
      </trkpt>
      <trkpt lat="45.23472" lon="5.61911">
        <ele>781</ele>
        <time>2011-06-10T07:22:54Z</time>
      </trkpt>
      <trkpt lat="45.23476" lon="5.61918">
        <ele>780</ele>
        <time>2011-06-10T07:22:56Z</time>
      </trkpt>
      <trkpt lat="45.23481" lon="5.61922">
        <ele>780</ele>
        <time>2011-06-10T07:22:58Z</time>
      </trkpt>
      <trkpt lat="45.23487" lon="5.61926">
        <ele>777</ele>
        <time>2011-06-10T07:23:00Z</time>
      </trkpt>
      <trkpt lat="45.23494" lon="5.6193">
        <ele>777</ele>
        <time>2011-06-10T07:23:02Z</time>
      </trkpt>
      <trkpt lat="45.23501" lon="5.61934">
        <ele>777</ele>
        <time>2011-06-10T07:23:04Z</time>
      </trkpt>
      <trkpt lat="45.23508" lon="5.6194">
        <ele>777</ele>
        <time>2011-06-10T07:23:06Z</time>
      </trkpt>
      <trkpt lat="45.23519" lon="5.6193">
        <ele>776</ele>
        <time>2011-06-10T07:23:09Z</time>
      </trkpt>
      <trkpt lat="45.23524" lon="5.61928">
        <ele>774</ele>
        <time>2011-06-10T07:23:13Z</time>
      </trkpt>
      <trkpt lat="45.23531" lon="5.61932">
        <ele>773</ele>
        <time>2011-06-10T07:23:19Z</time>
      </trkpt>
      <trkpt lat="45.23535" lon="5.61926">
        <ele>772</ele>
        <time>2011-06-10T07:23:22Z</time>
      </trkpt>
      <trkpt lat="45.23541" lon="5.61928">
        <ele>764</ele>
        <time>2011-06-10T07:27:30Z</time>
      </trkpt>
      <trkpt lat="45.23542" lon="5.61934">
        <ele>764</ele>
        <time>2011-06-10T07:27:31Z</time>
      </trkpt>
      <trkpt lat="45.23546" lon="5.61943">
        <ele>765</ele>
        <time>2011-06-10T07:27:32Z</time>
      </trkpt>
      <trkpt lat="45.23551" lon="5.61943">
        <ele>764</ele>
        <time>2011-06-10T07:27:33Z</time>
      </trkpt>
      <trkpt lat="45.23559" lon="5.61945">
        <ele>765</ele>
        <time>2011-06-10T07:27:34Z</time>
      </trkpt>
      <trkpt lat="45.23566" lon="5.61944">
        <ele>766</ele>
        <time>2011-06-10T07:27:35Z</time>
      </trkpt>
      <trkpt lat="45.23571" lon="5.61945">
        <ele>765</ele>
        <time>2011-06-10T07:27:36Z</time>
      </trkpt>
      <trkpt lat="45.23578" lon="5.61948">
        <ele>764</ele>
        <time>2011-06-10T07:27:37Z</time>
      </trkpt>
      <trkpt lat="45.23586" lon="5.6195">
        <ele>764</ele>
        <time>2011-06-10T07:27:38Z</time>
      </trkpt>
      <trkpt lat="45.23593" lon="5.61961">
        <ele>766</ele>
        <time>2011-06-10T07:27:40Z</time>
      </trkpt>
      <trkpt lat="45.23596" lon="5.61966">
        <ele>766</ele>
        <time>2011-06-10T07:27:41Z</time>
      </trkpt>
      <trkpt lat="45.23599" lon="5.61977">
        <ele>766</ele>
        <time>2011-06-10T07:27:43Z</time>
      </trkpt>
      <trkpt lat="45.23603" lon="5.61979">
        <ele>760</ele>
        <time>2011-06-10T07:27:46Z</time>
      </trkpt>
      <trkpt lat="45.23606" lon="5.61988">
        <ele>761</ele>
        <time>2011-06-10T07:27:48Z</time>
      </trkpt>
      <trkpt lat="45.23608" lon="5.61996">
        <ele>759</ele>
        <time>2011-06-10T07:27:50Z</time>
      </trkpt>
      <trkpt lat="45.23615" lon="5.62002">
        <ele>757</ele>
        <time>2011-06-10T07:27:52Z</time>
      </trkpt>
      <trkpt lat="45.2362" lon="5.62008">
        <ele>754</ele>
        <time>2011-06-10T07:27:54Z</time>
      </trkpt>
      <trkpt lat="45.23623" lon="5.62013">
        <ele>753</ele>
        <time>2011-06-10T07:27:56Z</time>
      </trkpt>
      <trkpt lat="45.2363" lon="5.62014">
        <ele>749</ele>
        <time>2011-06-10T07:27:58Z</time>
      </trkpt>
      <trkpt lat="45.23636" lon="5.62015">
        <ele>745</ele>
        <time>2011-06-10T07:27:59Z</time>
      </trkpt>
      <trkpt lat="45.23644" lon="5.62015">
        <ele>744</ele>
        <time>2011-06-10T07:28:01Z</time>
      </trkpt>
      <trkpt lat="45.23648" lon="5.62011">
        <ele>741</ele>
        <time>2011-06-10T07:28:02Z</time>
      </trkpt>
      <trkpt lat="45.23654" lon="5.6201">
        <ele>740</ele>
        <time>2011-06-10T07:28:04Z</time>
      </trkpt>
      <trkpt lat="45.2366" lon="5.62008">
        <ele>739</ele>
        <time>2011-06-10T07:28:06Z</time>
      </trkpt>
      <trkpt lat="45.23665" lon="5.62006">
        <ele>738</ele>
        <time>2011-06-10T07:28:08Z</time>
      </trkpt>
      <trkpt lat="45.2367" lon="5.62004">
        <ele>737</ele>
        <time>2011-06-10T07:28:10Z</time>
      </trkpt>
      <trkpt lat="45.23676" lon="5.62003">
        <ele>736</ele>
        <time>2011-06-10T07:28:15Z</time>
      </trkpt>
      <trkpt lat="45.23683" lon="5.62002">
        <ele>735</ele>
        <time>2011-06-10T07:28:18Z</time>
      </trkpt>
      <trkpt lat="45.23688" lon="5.62002">
        <ele>734</ele>
        <time>2011-06-10T07:28:20Z</time>
      </trkpt>
      <trkpt lat="45.23691" lon="5.61997">
        <ele>733</ele>
        <time>2011-06-10T07:28:23Z</time>
      </trkpt>
      <trkpt lat="45.23697" lon="5.62002">
        <ele>731</ele>
        <time>2011-06-10T07:28:25Z</time>
      </trkpt>
      <trkpt lat="45.23703" lon="5.61995">
        <ele>728</ele>
        <time>2011-06-10T07:28:27Z</time>
      </trkpt>
      <trkpt lat="45.23709" lon="5.61997">
        <ele>726</ele>
        <time>2011-06-10T07:28:31Z</time>
      </trkpt>
      <trkpt lat="45.23713" lon="5.61992">
        <ele>726</ele>
        <time>2011-06-10T07:28:33Z</time>
      </trkpt>
      <trkpt lat="45.23714" lon="5.61986">
        <ele>722</ele>
        <time>2011-06-10T07:28:36Z</time>
      </trkpt>
      <trkpt lat="45.23717" lon="5.6198">
        <ele>720</ele>
        <time>2011-06-10T07:28:42Z</time>
      </trkpt>
      <trkpt lat="45.23718" lon="5.61973">
        <ele>717</ele>
        <time>2011-06-10T07:28:50Z</time>
      </trkpt>
      <trkpt lat="45.23728" lon="5.61974">
        <ele>716</ele>
        <time>2011-06-10T07:30:05Z</time>
      </trkpt>
      <trkpt lat="45.23735" lon="5.61976">
        <ele>715</ele>
        <time>2011-06-10T07:30:07Z</time>
      </trkpt>
      <trkpt lat="45.2374" lon="5.61974">
        <ele>715</ele>
        <time>2011-06-10T07:30:09Z</time>
      </trkpt>
      <trkpt lat="45.23749" lon="5.61976">
        <ele>715</ele>
        <time>2011-06-10T07:30:11Z</time>
      </trkpt>
      <trkpt lat="45.23756" lon="5.61977">
        <ele>715</ele>
        <time>2011-06-10T07:30:13Z</time>
      </trkpt>
      <trkpt lat="45.23767" lon="5.61978">
        <ele>715</ele>
        <time>2011-06-10T07:30:14Z</time>
      </trkpt>
      <trkpt lat="45.23772" lon="5.61978">
        <ele>715</ele>
        <time>2011-06-10T07:30:15Z</time>
      </trkpt>
      <trkpt lat="45.23779" lon="5.61978">
        <ele>715</ele>
        <time>2011-06-10T07:30:16Z</time>
      </trkpt>
      <trkpt lat="45.23796" lon="5.61981">
        <ele>715</ele>
        <time>2011-06-10T07:30:18Z</time>
      </trkpt>
      <trkpt lat="45.23803" lon="5.6198">
        <ele>715</ele>
        <time>2011-06-10T07:30:20Z</time>
      </trkpt>
      <trkpt lat="45.23808" lon="5.61977">
        <ele>715</ele>
        <time>2011-06-10T07:30:21Z</time>
      </trkpt>
      <trkpt lat="45.23813" lon="5.61976">
        <ele>715</ele>
        <time>2011-06-10T07:30:26Z</time>
      </trkpt>
      <trkpt lat="45.23824" lon="5.61975">
        <ele>713</ele>
        <time>2011-06-10T07:30:31Z</time>
      </trkpt>
      <trkpt lat="45.23828" lon="5.61963">
        <ele>711</ele>
        <time>2011-06-10T07:30:32Z</time>
      </trkpt>
      <trkpt lat="45.23835" lon="5.61968">
        <ele>700</ele>
        <time>2011-06-10T07:31:38Z</time>
      </trkpt>
      <trkpt lat="45.23849" lon="5.62002">
        <ele>675</ele>
        <time>2011-06-10T07:31:39Z</time>
      </trkpt>
      <trkpt lat="45.23853" lon="5.62005">
        <ele>667</ele>
        <time>2011-06-10T07:31:43Z</time>
      </trkpt>
      <trkpt lat="45.23856" lon="5.62014">
        <ele>665</ele>
        <time>2011-06-10T07:31:46Z</time>
      </trkpt>
      <trkpt lat="45.23856" lon="5.62021">
        <ele>662</ele>
        <time>2011-06-10T07:31:48Z</time>
      </trkpt>
      <trkpt lat="45.23858" lon="5.62027">
        <ele>658</ele>
        <time>2011-06-10T07:31:50Z</time>
      </trkpt>
      <trkpt lat="45.23857" lon="5.62037">
        <ele>657</ele>
        <time>2011-06-10T07:31:53Z</time>
      </trkpt>
      <trkpt lat="45.23854" lon="5.62046">
        <ele>653</ele>
        <time>2011-06-10T07:31:55Z</time>
      </trkpt>
      <trkpt lat="45.23854" lon="5.62056">
        <ele>651</ele>
        <time>2011-06-10T07:31:58Z</time>
      </trkpt>
      <trkpt lat="45.23854" lon="5.62063">
        <ele>649</ele>
        <time>2011-06-10T07:32:00Z</time>
      </trkpt>
      <trkpt lat="45.23854" lon="5.62071">
        <ele>647</ele>
        <time>2011-06-10T07:32:04Z</time>
      </trkpt>
      <trkpt lat="45.23853" lon="5.62082">
        <ele>645</ele>
        <time>2011-06-10T07:32:06Z</time>
      </trkpt>
      <trkpt lat="45.23852" lon="5.62092">
        <ele>641</ele>
        <time>2011-06-10T07:32:09Z</time>
      </trkpt>
      <trkpt lat="45.2385" lon="5.62099">
        <ele>632</ele>
        <time>2011-06-10T07:32:27Z</time>
      </trkpt>
      <trkpt lat="45.23851" lon="5.62108">
        <ele>630</ele>
        <time>2011-06-10T07:32:29Z</time>
      </trkpt>
      <trkpt lat="45.23851" lon="5.62121">
        <ele>629</ele>
        <time>2011-06-10T07:32:32Z</time>
      </trkpt>
      <trkpt lat="45.23851" lon="5.62127">
        <ele>628</ele>
        <time>2011-06-10T07:32:33Z</time>
      </trkpt>
      <trkpt lat="45.23852" lon="5.62135">
        <ele>625</ele>
        <time>2011-06-10T07:32:35Z</time>
      </trkpt>
      <trkpt lat="45.23853" lon="5.62142">
        <ele>623</ele>
        <time>2011-06-10T07:32:37Z</time>
      </trkpt>
      <trkpt lat="45.23853" lon="5.62149">
        <ele>622</ele>
        <time>2011-06-10T07:32:39Z</time>
      </trkpt>
      <trkpt lat="45.23853" lon="5.62155">
        <ele>620</ele>
        <time>2011-06-10T07:32:40Z</time>
      </trkpt>
      <trkpt lat="45.23851" lon="5.62165">
        <ele>618</ele>
        <time>2011-06-10T07:32:42Z</time>
      </trkpt>
      <trkpt lat="45.2385" lon="5.62177">
        <ele>616</ele>
        <time>2011-06-10T07:32:45Z</time>
      </trkpt>
      <trkpt lat="45.23849" lon="5.62183">
        <ele>614</ele>
        <time>2011-06-10T07:32:46Z</time>
      </trkpt>
      <trkpt lat="45.23853" lon="5.62191">
        <ele>611</ele>
        <time>2011-06-10T07:32:49Z</time>
      </trkpt>
      <trkpt lat="45.23858" lon="5.62202">
        <ele>606</ele>
        <time>2011-06-10T07:33:06Z</time>
      </trkpt>
      <trkpt lat="45.23863" lon="5.62208">
        <ele>603</ele>
        <time>2011-06-10T07:33:08Z</time>
      </trkpt>
      <trkpt lat="45.23865" lon="5.62218">
        <ele>603</ele>
        <time>2011-06-10T07:33:10Z</time>
      </trkpt>
      <trkpt lat="45.23868" lon="5.62222">
        <ele>601</ele>
        <time>2011-06-10T07:33:12Z</time>
      </trkpt>
      <trkpt lat="45.2387" lon="5.6223">
        <ele>601</ele>
        <time>2011-06-10T07:33:15Z</time>
      </trkpt>
      <trkpt lat="45.23872" lon="5.62246">
        <ele>601</ele>
        <time>2011-06-10T07:33:19Z</time>
      </trkpt>
      <trkpt lat="45.23873" lon="5.62254">
        <ele>600</ele>
        <time>2011-06-10T07:33:21Z</time>
      </trkpt>
      <trkpt lat="45.23873" lon="5.62261">
        <ele>600</ele>
        <time>2011-06-10T07:33:24Z</time>
      </trkpt>
      <trkpt lat="45.23877" lon="5.62267">
        <ele>597</ele>
        <time>2011-06-10T07:33:27Z</time>
      </trkpt>
      <trkpt lat="45.23881" lon="5.62271">
        <ele>596</ele>
        <time>2011-06-10T07:33:29Z</time>
      </trkpt>
      <trkpt lat="45.23884" lon="5.62278">
        <ele>596</ele>
        <time>2011-06-10T07:33:31Z</time>
      </trkpt>
      <trkpt lat="45.23892" lon="5.62284">
        <ele>594</ele>
        <time>2011-06-10T07:33:33Z</time>
      </trkpt>
      <trkpt lat="45.23898" lon="5.62285">
        <ele>594</ele>
        <time>2011-06-10T07:33:34Z</time>
      </trkpt>
      <trkpt lat="45.23907" lon="5.62288">
        <ele>591</ele>
        <time>2011-06-10T07:33:36Z</time>
      </trkpt>
      <trkpt lat="45.23913" lon="5.62289">
        <ele>590</ele>
        <time>2011-06-10T07:33:37Z</time>
      </trkpt>
      <trkpt lat="45.23919" lon="5.6229">
        <ele>590</ele>
        <time>2011-06-10T07:33:38Z</time>
      </trkpt>
      <trkpt lat="45.23924" lon="5.62292">
        <ele>589</ele>
        <time>2011-06-10T07:33:39Z</time>
      </trkpt>
      <trkpt lat="45.23933" lon="5.62296">
        <ele>589</ele>
        <time>2011-06-10T07:33:41Z</time>
      </trkpt>
      <trkpt lat="45.23938" lon="5.62298">
        <ele>589</ele>
        <time>2011-06-10T07:33:42Z</time>
      </trkpt>
      <trkpt lat="45.23941" lon="5.62302">
        <ele>589</ele>
        <time>2011-06-10T07:33:43Z</time>
      </trkpt>
      <trkpt lat="45.23948" lon="5.62313">
        <ele>589</ele>
        <time>2011-06-10T07:33:45Z</time>
      </trkpt>
      <trkpt lat="45.23955" lon="5.62327">
        <ele>587</ele>
        <time>2011-06-10T07:33:47Z</time>
      </trkpt>
      <trkpt lat="45.23959" lon="5.62331">
        <ele>586</ele>
        <time>2011-06-10T07:33:48Z</time>
      </trkpt>
      <trkpt lat="45.23963" lon="5.62336">
        <ele>585</ele>
        <time>2011-06-10T07:33:49Z</time>
      </trkpt>
      <trkpt lat="45.23966" lon="5.62342">
        <ele>583</ele>
        <time>2011-06-10T07:33:50Z</time>
      </trkpt>
      <trkpt lat="45.23976" lon="5.62347">
        <ele>581</ele>
        <time>2011-06-10T07:33:52Z</time>
      </trkpt>
      <trkpt lat="45.23984" lon="5.62352">
        <ele>576</ele>
        <time>2011-06-10T07:33:54Z</time>
      </trkpt>
      <trkpt lat="45.2399" lon="5.62352">
        <ele>574</ele>
        <time>2011-06-10T07:33:55Z</time>
      </trkpt>
      <trkpt lat="45.23996" lon="5.62358">
        <ele>572</ele>
        <time>2011-06-10T07:33:57Z</time>
      </trkpt>
      <trkpt lat="45.24004" lon="5.62364">
        <ele>568</ele>
        <time>2011-06-10T07:33:59Z</time>
      </trkpt>
      <trkpt lat="45.2401" lon="5.62372">
        <ele>566</ele>
        <time>2011-06-10T07:34:01Z</time>
      </trkpt>
      <trkpt lat="45.24014" lon="5.62374">
        <ele>565</ele>
        <time>2011-06-10T07:34:02Z</time>
      </trkpt>
      <trkpt lat="45.2402" lon="5.62374">
        <ele>564</ele>
        <time>2011-06-10T07:34:04Z</time>
      </trkpt>
      <trkpt lat="45.24025" lon="5.62368">
        <ele>561</ele>
        <time>2011-06-10T07:34:06Z</time>
      </trkpt>
      <trkpt lat="45.24028" lon="5.62363">
        <ele>559</ele>
        <time>2011-06-10T07:34:09Z</time>
      </trkpt>
      <trkpt lat="45.24032" lon="5.62357">
        <ele>557</ele>
        <time>2011-06-10T07:34:11Z</time>
      </trkpt>
      <trkpt lat="45.24035" lon="5.6235">
        <ele>555</ele>
        <time>2011-06-10T07:34:13Z</time>
      </trkpt>
      <trkpt lat="45.24039" lon="5.62343">
        <ele>552</ele>
        <time>2011-06-10T07:34:18Z</time>
      </trkpt>
      <trkpt lat="45.24043" lon="5.62341">
        <ele>551</ele>
        <time>2011-06-10T07:34:19Z</time>
      </trkpt>
      <trkpt lat="45.24049" lon="5.62339">
        <ele>551</ele>
        <time>2011-06-10T07:34:20Z</time>
      </trkpt>
      <trkpt lat="45.24054" lon="5.6234">
        <ele>550</ele>
        <time>2011-06-10T07:34:22Z</time>
      </trkpt>
      <trkpt lat="45.24058" lon="5.6234">
        <ele>549</ele>
        <time>2011-06-10T07:34:23Z</time>
      </trkpt>
      <trkpt lat="45.24065" lon="5.62341">
        <ele>548</ele>
        <time>2011-06-10T07:34:25Z</time>
      </trkpt>
      <trkpt lat="45.24069" lon="5.62342">
        <ele>547</ele>
        <time>2011-06-10T07:34:26Z</time>
      </trkpt>
      <trkpt lat="45.24074" lon="5.62344">
        <ele>546</ele>
        <time>2011-06-10T07:34:27Z</time>
      </trkpt>
      <trkpt lat="45.24082" lon="5.62349">
        <ele>543</ele>
        <time>2011-06-10T07:34:29Z</time>
      </trkpt>
      <trkpt lat="45.24088" lon="5.62349">
        <ele>542</ele>
        <time>2011-06-10T07:34:31Z</time>
      </trkpt>
      <trkpt lat="45.24097" lon="5.6235">
        <ele>539</ele>
        <time>2011-06-10T07:34:34Z</time>
      </trkpt>
      <trkpt lat="45.24102" lon="5.62352">
        <ele>539</ele>
        <time>2011-06-10T07:34:35Z</time>
      </trkpt>
      <trkpt lat="45.24107" lon="5.62361">
        <ele>537</ele>
        <time>2011-06-10T07:34:37Z</time>
      </trkpt>
      <trkpt lat="45.24108" lon="5.62368">
        <ele>535</ele>
        <time>2011-06-10T07:34:39Z</time>
      </trkpt>
      <trkpt lat="45.2411" lon="5.62374">
        <ele>530</ele>
        <time>2011-06-10T07:34:41Z</time>
      </trkpt>
      <trkpt lat="45.24111" lon="5.62386">
        <ele>526</ele>
        <time>2011-06-10T07:34:43Z</time>
      </trkpt>
      <trkpt lat="45.24113" lon="5.62403">
        <ele>520</ele>
        <time>2011-06-10T07:34:45Z</time>
      </trkpt>
      <trkpt lat="45.24114" lon="5.62413">
        <ele>517</ele>
        <time>2011-06-10T07:34:46Z</time>
      </trkpt>
      <trkpt lat="45.24117" lon="5.62423">
        <ele>516</ele>
        <time>2011-06-10T07:34:47Z</time>
      </trkpt>
      <trkpt lat="45.2412" lon="5.62434">
        <ele>516</ele>
        <time>2011-06-10T07:34:48Z</time>
      </trkpt>
      <trkpt lat="45.24124" lon="5.62444">
        <ele>515</ele>
        <time>2011-06-10T07:34:49Z</time>
      </trkpt>
      <trkpt lat="45.24129" lon="5.62452">
        <ele>514</ele>
        <time>2011-06-10T07:34:50Z</time>
      </trkpt>
      <trkpt lat="45.24133" lon="5.62461">
        <ele>514</ele>
        <time>2011-06-10T07:34:51Z</time>
      </trkpt>
      <trkpt lat="45.24139" lon="5.62469">
        <ele>513</ele>
        <time>2011-06-10T07:34:52Z</time>
      </trkpt>
      <trkpt lat="45.24145" lon="5.62476">
        <ele>512</ele>
        <time>2011-06-10T07:34:53Z</time>
      </trkpt>
      <trkpt lat="45.2415" lon="5.62484">
        <ele>511</ele>
        <time>2011-06-10T07:34:54Z</time>
      </trkpt>
      <trkpt lat="45.24153" lon="5.62492">
        <ele>510</ele>
        <time>2011-06-10T07:34:55Z</time>
      </trkpt>
      <trkpt lat="45.24158" lon="5.62499">
        <ele>509</ele>
        <time>2011-06-10T07:34:56Z</time>
      </trkpt>
      <trkpt lat="45.24163" lon="5.62505">
        <ele>508</ele>
        <time>2011-06-10T07:34:57Z</time>
      </trkpt>
      <trkpt lat="45.24168" lon="5.62514">
        <ele>507</ele>
        <time>2011-06-10T07:34:58Z</time>
      </trkpt>
      <trkpt lat="45.24171" lon="5.62522">
        <ele>506</ele>
        <time>2011-06-10T07:34:59Z</time>
      </trkpt>
      <trkpt lat="45.24176" lon="5.6253">
        <ele>506</ele>
        <time>2011-06-10T07:35:00Z</time>
      </trkpt>
      <trkpt lat="45.24181" lon="5.62539">
        <ele>505</ele>
        <time>2011-06-10T07:35:01Z</time>
      </trkpt>
      <trkpt lat="45.24184" lon="5.62547">
        <ele>504</ele>
        <time>2011-06-10T07:35:02Z</time>
      </trkpt>
      <trkpt lat="45.24188" lon="5.62553">
        <ele>504</ele>
        <time>2011-06-10T07:35:03Z</time>
      </trkpt>
      <trkpt lat="45.24191" lon="5.62561">
        <ele>503</ele>
        <time>2011-06-10T07:35:04Z</time>
      </trkpt>
      <trkpt lat="45.24195" lon="5.62569">
        <ele>502</ele>
        <time>2011-06-10T07:35:05Z</time>
      </trkpt>
      <trkpt lat="45.242" lon="5.62577">
        <ele>502</ele>
        <time>2011-06-10T07:35:06Z</time>
      </trkpt>
      <trkpt lat="45.24206" lon="5.62583">
        <ele>502</ele>
        <time>2011-06-10T07:35:07Z</time>
      </trkpt>
      <trkpt lat="45.24211" lon="5.62587">
        <ele>502</ele>
        <time>2011-06-10T07:35:08Z</time>
      </trkpt>
      <trkpt lat="45.24215" lon="5.62591">
        <ele>502</ele>
        <time>2011-06-10T07:35:09Z</time>
      </trkpt>
      <trkpt lat="45.24219" lon="5.62595">
        <ele>502</ele>
        <time>2011-06-10T07:35:10Z</time>
      </trkpt>
      <trkpt lat="45.24227" lon="5.62598">
        <ele>501</ele>
        <time>2011-06-10T07:35:12Z</time>
      </trkpt>
      <trkpt lat="45.24234" lon="5.62601">
        <ele>501</ele>
        <time>2011-06-10T07:35:14Z</time>
      </trkpt>
      <trkpt lat="45.24238" lon="5.6261">
        <ele>499</ele>
        <time>2011-06-10T07:35:16Z</time>
      </trkpt>
      <trkpt lat="45.2424" lon="5.62619">
        <ele>499</ele>
        <time>2011-06-10T07:35:18Z</time>
      </trkpt>
      <trkpt lat="45.24243" lon="5.62629">
        <ele>498</ele>
        <time>2011-06-10T07:35:20Z</time>
      </trkpt>
      <trkpt lat="45.24244" lon="5.62638">
        <ele>497</ele>
        <time>2011-06-10T07:35:21Z</time>
      </trkpt>
      <trkpt lat="45.24244" lon="5.62648">
        <ele>496</ele>
        <time>2011-06-10T07:35:23Z</time>
      </trkpt>
      <trkpt lat="45.2424" lon="5.62656">
        <ele>495</ele>
        <time>2011-06-10T07:35:25Z</time>
      </trkpt>
      <trkpt lat="45.24236" lon="5.6266">
        <ele>495</ele>
        <time>2011-06-10T07:35:26Z</time>
      </trkpt>
      <trkpt lat="45.24232" lon="5.62665">
        <ele>494</ele>
        <time>2011-06-10T07:35:27Z</time>
      </trkpt>
      <trkpt lat="45.24221" lon="5.62671">
        <ele>494</ele>
        <time>2011-06-10T07:35:29Z</time>
      </trkpt>
      <trkpt lat="45.24206" lon="5.62677">
        <ele>493</ele>
        <time>2011-06-10T07:35:31Z</time>
      </trkpt>
      <trkpt lat="45.24199" lon="5.62679">
        <ele>493</ele>
        <time>2011-06-10T07:35:32Z</time>
      </trkpt>
      <trkpt lat="45.24194" lon="5.6268">
        <ele>493</ele>
        <time>2011-06-10T07:35:33Z</time>
      </trkpt>
      <trkpt lat="45.24188" lon="5.62681">
        <ele>492</ele>
        <time>2011-06-10T07:35:34Z</time>
      </trkpt>
      <trkpt lat="45.24183" lon="5.62682">
        <ele>492</ele>
        <time>2011-06-10T07:35:35Z</time>
      </trkpt>
      <trkpt lat="45.24177" lon="5.62684">
        <ele>492</ele>
        <time>2011-06-10T07:35:36Z</time>
      </trkpt>
      <trkpt lat="45.24172" lon="5.62684">
        <ele>492</ele>
        <time>2011-06-10T07:35:37Z</time>
      </trkpt>
      <trkpt lat="45.24165" lon="5.62684">
        <ele>491</ele>
        <time>2011-06-10T07:35:38Z</time>
      </trkpt>
      <trkpt lat="45.2416" lon="5.62686">
        <ele>491</ele>
        <time>2011-06-10T07:35:39Z</time>
      </trkpt>
      <trkpt lat="45.24152" lon="5.62687">
        <ele>490</ele>
        <time>2011-06-10T07:35:40Z</time>
      </trkpt>
      <trkpt lat="45.24145" lon="5.62685">
        <ele>490</ele>
        <time>2011-06-10T07:35:41Z</time>
      </trkpt>
      <trkpt lat="45.24137" lon="5.62685">
        <ele>489</ele>
        <time>2011-06-10T07:35:42Z</time>
      </trkpt>
      <trkpt lat="45.24129" lon="5.62683">
        <ele>489</ele>
        <time>2011-06-10T07:35:43Z</time>
      </trkpt>
      <trkpt lat="45.24118" lon="5.62679">
        <ele>489</ele>
        <time>2011-06-10T07:35:45Z</time>
      </trkpt>
      <trkpt lat="45.24112" lon="5.62678">
        <ele>488</ele>
        <time>2011-06-10T07:35:47Z</time>
      </trkpt>
      <trkpt lat="45.2411" lon="5.62684">
        <ele>486</ele>
        <time>2011-06-10T07:35:49Z</time>
      </trkpt>
      <trkpt lat="45.24114" lon="5.62695">
        <ele>482</ele>
        <time>2011-06-10T07:35:52Z</time>
      </trkpt>
      <trkpt lat="45.24119" lon="5.62703">
        <ele>480</ele>
        <time>2011-06-10T07:35:54Z</time>
      </trkpt>
      <trkpt lat="45.24126" lon="5.62712">
        <ele>479</ele>
        <time>2011-06-10T07:35:56Z</time>
      </trkpt>
      <trkpt lat="45.24128" lon="5.62718">
        <ele>479</ele>
        <time>2011-06-10T07:35:57Z</time>
      </trkpt>
      <trkpt lat="45.24134" lon="5.62721">
        <ele>477</ele>
        <time>2011-06-10T07:35:58Z</time>
      </trkpt>
      <trkpt lat="45.24136" lon="5.62727">
        <ele>476</ele>
        <time>2011-06-10T07:35:59Z</time>
      </trkpt>
      <trkpt lat="45.24141" lon="5.62731">
        <ele>475</ele>
        <time>2011-06-10T07:36:00Z</time>
      </trkpt>
      <trkpt lat="45.24148" lon="5.62734">
        <ele>473</ele>
        <time>2011-06-10T07:36:01Z</time>
      </trkpt>
      <trkpt lat="45.24153" lon="5.62739">
        <ele>472</ele>
        <time>2011-06-10T07:36:02Z</time>
      </trkpt>
      <trkpt lat="45.24158" lon="5.62744">
        <ele>471</ele>
        <time>2011-06-10T07:36:03Z</time>
      </trkpt>
      <trkpt lat="45.24164" lon="5.62749">
        <ele>471</ele>
        <time>2011-06-10T07:36:04Z</time>
      </trkpt>
      <trkpt lat="45.2417" lon="5.62752">
        <ele>471</ele>
        <time>2011-06-10T07:36:05Z</time>
      </trkpt>
      <trkpt lat="45.24176" lon="5.62757">
        <ele>469</ele>
        <time>2011-06-10T07:36:06Z</time>
      </trkpt>
      <trkpt lat="45.24183" lon="5.62763">
        <ele>468</ele>
        <time>2011-06-10T07:36:07Z</time>
      </trkpt>
      <trkpt lat="45.24191" lon="5.62767">
        <ele>467</ele>
        <time>2011-06-10T07:36:08Z</time>
      </trkpt>
      <trkpt lat="45.24197" lon="5.62774">
        <ele>466</ele>
        <time>2011-06-10T07:36:09Z</time>
      </trkpt>
      <trkpt lat="45.24205" lon="5.6278">
        <ele>466</ele>
        <time>2011-06-10T07:36:10Z</time>
      </trkpt>
      <trkpt lat="45.24212" lon="5.62786">
        <ele>465</ele>
        <time>2011-06-10T07:36:11Z</time>
      </trkpt>
      <trkpt lat="45.2422" lon="5.6279">
        <ele>464</ele>
        <time>2011-06-10T07:36:12Z</time>
      </trkpt>
      <trkpt lat="45.24226" lon="5.62797">
        <ele>463</ele>
        <time>2011-06-10T07:36:13Z</time>
      </trkpt>
      <trkpt lat="45.24233" lon="5.62804">
        <ele>463</ele>
        <time>2011-06-10T07:36:14Z</time>
      </trkpt>
      <trkpt lat="45.2424" lon="5.62811">
        <ele>462</ele>
        <time>2011-06-10T07:36:15Z</time>
      </trkpt>
      <trkpt lat="45.24246" lon="5.62814">
        <ele>461</ele>
        <time>2011-06-10T07:36:16Z</time>
      </trkpt>
      <trkpt lat="45.24251" lon="5.6282">
        <ele>461</ele>
        <time>2011-06-10T07:36:17Z</time>
      </trkpt>
      <trkpt lat="45.24255" lon="5.62824">
        <ele>460</ele>
        <time>2011-06-10T07:36:18Z</time>
      </trkpt>
      <trkpt lat="45.24255" lon="5.62832">
        <ele>459</ele>
        <time>2011-06-10T07:36:19Z</time>
      </trkpt>
      <trkpt lat="45.24252" lon="5.62842">
        <ele>459</ele>
        <time>2011-06-10T07:36:21Z</time>
      </trkpt>
      <trkpt lat="45.24248" lon="5.62846">
        <ele>457</ele>
        <time>2011-06-10T07:36:23Z</time>
      </trkpt>
      <trkpt lat="45.24238" lon="5.62838">
        <ele>456</ele>
        <time>2011-06-10T07:36:25Z</time>
      </trkpt>
      <trkpt lat="45.24233" lon="5.62835">
        <ele>456</ele>
        <time>2011-06-10T07:36:26Z</time>
      </trkpt>
      <trkpt lat="45.24226" lon="5.62832">
        <ele>455</ele>
        <time>2011-06-10T07:36:27Z</time>
      </trkpt>
      <trkpt lat="45.2422" lon="5.62829">
        <ele>454</ele>
        <time>2011-06-10T07:36:28Z</time>
      </trkpt>
      <trkpt lat="45.24214" lon="5.62825">
        <ele>454</ele>
        <time>2011-06-10T07:36:29Z</time>
      </trkpt>
      <trkpt lat="45.24208" lon="5.62821">
        <ele>454</ele>
        <time>2011-06-10T07:36:30Z</time>
      </trkpt>
      <trkpt lat="45.24203" lon="5.62816">
        <ele>453</ele>
        <time>2011-06-10T07:36:31Z</time>
      </trkpt>
      <trkpt lat="45.24197" lon="5.62812">
        <ele>453</ele>
        <time>2011-06-10T07:36:32Z</time>
      </trkpt>
      <trkpt lat="45.24191" lon="5.6281">
        <ele>453</ele>
        <time>2011-06-10T07:36:33Z</time>
      </trkpt>
      <trkpt lat="45.24183" lon="5.62808">
        <ele>452</ele>
        <time>2011-06-10T07:36:34Z</time>
      </trkpt>
      <trkpt lat="45.24176" lon="5.6281">
        <ele>452</ele>
        <time>2011-06-10T07:36:35Z</time>
      </trkpt>
      <trkpt lat="45.24171" lon="5.62808">
        <ele>452</ele>
        <time>2011-06-10T07:36:36Z</time>
      </trkpt>
      <trkpt lat="45.24164" lon="5.62807">
        <ele>452</ele>
        <time>2011-06-10T07:36:37Z</time>
      </trkpt>
      <trkpt lat="45.24158" lon="5.62805">
        <ele>452</ele>
        <time>2011-06-10T07:36:38Z</time>
      </trkpt>
      <trkpt lat="45.24152" lon="5.62805">
        <ele>452</ele>
        <time>2011-06-10T07:36:39Z</time>
      </trkpt>
      <trkpt lat="45.24146" lon="5.62804">
        <ele>452</ele>
        <time>2011-06-10T07:36:40Z</time>
      </trkpt>
      <trkpt lat="45.24141" lon="5.628">
        <ele>451</ele>
        <time>2011-06-10T07:36:41Z</time>
      </trkpt>
      <trkpt lat="45.24136" lon="5.62796">
        <ele>451</ele>
        <time>2011-06-10T07:36:42Z</time>
      </trkpt>
      <trkpt lat="45.24119" lon="5.62792">
        <ele>450</ele>
        <time>2011-06-10T07:36:45Z</time>
      </trkpt>
      <trkpt lat="45.24114" lon="5.62791">
        <ele>449</ele>
        <time>2011-06-10T07:36:46Z</time>
      </trkpt>
      <trkpt lat="45.24109" lon="5.6279">
        <ele>449</ele>
        <time>2011-06-10T07:36:47Z</time>
      </trkpt>
      <trkpt lat="45.24102" lon="5.62787">
        <ele>448</ele>
        <time>2011-06-10T07:36:48Z</time>
      </trkpt>
      <trkpt lat="45.24096" lon="5.62783">
        <ele>448</ele>
        <time>2011-06-10T07:36:49Z</time>
      </trkpt>
      <trkpt lat="45.2409" lon="5.62783">
        <ele>447</ele>
        <time>2011-06-10T07:36:50Z</time>
      </trkpt>
      <trkpt lat="45.24085" lon="5.62781">
        <ele>447</ele>
        <time>2011-06-10T07:36:51Z</time>
      </trkpt>
      <trkpt lat="45.24078" lon="5.62784">
        <ele>447</ele>
        <time>2011-06-10T07:36:52Z</time>
      </trkpt>
      <trkpt lat="45.2407" lon="5.62785">
        <ele>447</ele>
        <time>2011-06-10T07:36:53Z</time>
      </trkpt>
      <trkpt lat="45.24064" lon="5.62787">
        <ele>447</ele>
        <time>2011-06-10T07:36:54Z</time>
      </trkpt>
      <trkpt lat="45.24054" lon="5.62791">
        <ele>446</ele>
        <time>2011-06-10T07:36:56Z</time>
      </trkpt>
      <trkpt lat="45.24051" lon="5.62798">
        <ele>445</ele>
        <time>2011-06-10T07:36:57Z</time>
      </trkpt>
      <trkpt lat="45.24046" lon="5.62813">
        <ele>442</ele>
        <time>2011-06-10T07:36:59Z</time>
      </trkpt>
      <trkpt lat="45.24043" lon="5.62821">
        <ele>441</ele>
        <time>2011-06-10T07:37:00Z</time>
      </trkpt>
      <trkpt lat="45.24041" lon="5.62828">
        <ele>441</ele>
        <time>2011-06-10T07:37:01Z</time>
      </trkpt>
      <trkpt lat="45.2404" lon="5.62839">
        <ele>440</ele>
        <time>2011-06-10T07:37:03Z</time>
      </trkpt>
      <trkpt lat="45.24046" lon="5.62851">
        <ele>432</ele>
        <time>2011-06-10T07:37:05Z</time>
      </trkpt>
      <trkpt lat="45.24049" lon="5.62857">
        <ele>430</ele>
        <time>2011-06-10T07:37:07Z</time>
      </trkpt>
      <trkpt lat="45.24054" lon="5.6286">
        <ele>429</ele>
        <time>2011-06-10T07:37:09Z</time>
      </trkpt>
      <trkpt lat="45.24061" lon="5.6286">
        <ele>427</ele>
        <time>2011-06-10T07:37:12Z</time>
      </trkpt>
      <trkpt lat="45.24067" lon="5.62865">
        <ele>424</ele>
        <time>2011-06-10T07:37:17Z</time>
      </trkpt>
      <trkpt lat="45.24071" lon="5.62869">
        <ele>420</ele>
        <time>2011-06-10T07:37:19Z</time>
      </trkpt>
      <trkpt lat="45.24077" lon="5.62868">
        <ele>419</ele>
        <time>2011-06-10T07:37:21Z</time>
      </trkpt>
      <trkpt lat="45.24082" lon="5.62871">
        <ele>418</ele>
        <time>2011-06-10T07:37:23Z</time>
      </trkpt>
      <trkpt lat="45.24087" lon="5.62876">
        <ele>416</ele>
        <time>2011-06-10T07:37:25Z</time>
      </trkpt>
      <trkpt lat="45.24094" lon="5.62878">
        <ele>414</ele>
        <time>2011-06-10T07:37:27Z</time>
      </trkpt>
      <trkpt lat="45.24099" lon="5.62881">
        <ele>413</ele>
        <time>2011-06-10T07:37:30Z</time>
      </trkpt>
      <trkpt lat="45.24104" lon="5.62885">
        <ele>412</ele>
        <time>2011-06-10T07:37:33Z</time>
      </trkpt>
      <trkpt lat="45.2411" lon="5.62886">
        <ele>410</ele>
        <time>2011-06-10T07:37:37Z</time>
      </trkpt>
      <trkpt lat="45.24113" lon="5.62892">
        <ele>409</ele>
        <time>2011-06-10T07:37:39Z</time>
      </trkpt>
      <trkpt lat="45.24118" lon="5.62895">
        <ele>408</ele>
        <time>2011-06-10T07:37:41Z</time>
      </trkpt>
      <trkpt lat="45.2412" lon="5.62901">
        <ele>407</ele>
        <time>2011-06-10T07:37:43Z</time>
      </trkpt>
      <trkpt lat="45.24125" lon="5.62903">
        <ele>406</ele>
        <time>2011-06-10T07:37:45Z</time>
      </trkpt>
      <trkpt lat="45.24129" lon="5.62905">
        <ele>405</ele>
        <time>2011-06-10T07:37:47Z</time>
      </trkpt>
      <trkpt lat="45.24133" lon="5.62907">
        <ele>403</ele>
        <time>2011-06-10T07:37:48Z</time>
      </trkpt>
      <trkpt lat="45.2414" lon="5.62907">
        <ele>402</ele>
        <time>2011-06-10T07:37:50Z</time>
      </trkpt>
      <trkpt lat="45.24152" lon="5.6291">
        <ele>399</ele>
        <time>2011-06-10T07:37:52Z</time>
      </trkpt>
      <trkpt lat="45.24158" lon="5.62912">
        <ele>397</ele>
        <time>2011-06-10T07:37:53Z</time>
      </trkpt>
      <trkpt lat="45.24163" lon="5.62913">
        <ele>395</ele>
        <time>2011-06-10T07:37:54Z</time>
      </trkpt>
      <trkpt lat="45.24168" lon="5.62917">
        <ele>394</ele>
        <time>2011-06-10T07:37:55Z</time>
      </trkpt>
      <trkpt lat="45.24172" lon="5.62923">
        <ele>392</ele>
        <time>2011-06-10T07:37:56Z</time>
      </trkpt>
      <trkpt lat="45.24177" lon="5.62929">
        <ele>391</ele>
        <time>2011-06-10T07:37:58Z</time>
      </trkpt>
      <trkpt lat="45.24178" lon="5.62938">
        <ele>388</ele>
        <time>2011-06-10T07:38:00Z</time>
      </trkpt>
      <trkpt lat="45.24183" lon="5.62945">
        <ele>387</ele>
        <time>2011-06-10T07:38:02Z</time>
      </trkpt>
      <trkpt lat="45.24189" lon="5.62948">
        <ele>386</ele>
        <time>2011-06-10T07:38:04Z</time>
      </trkpt>
      <trkpt lat="45.24194" lon="5.62951">
        <ele>386</ele>
        <time>2011-06-10T07:38:05Z</time>
      </trkpt>
      <trkpt lat="45.24197" lon="5.62958">
        <ele>384</ele>
        <time>2011-06-10T07:38:06Z</time>
      </trkpt>
      <trkpt lat="45.24201" lon="5.62961">
        <ele>382</ele>
        <time>2011-06-10T07:38:07Z</time>
      </trkpt>
      <trkpt lat="45.24206" lon="5.6296">
        <ele>381</ele>
        <time>2011-06-10T07:38:08Z</time>
      </trkpt>
      <trkpt lat="45.24213" lon="5.6296">
        <ele>378</ele>
        <time>2011-06-10T07:38:10Z</time>
      </trkpt>
      <trkpt lat="45.24216" lon="5.62963">
        <ele>377</ele>
        <time>2011-06-10T07:38:11Z</time>
      </trkpt>
      <trkpt lat="45.24225" lon="5.62968">
        <ele>373</ele>
        <time>2011-06-10T07:38:13Z</time>
      </trkpt>
      <trkpt lat="45.24233" lon="5.62974">
        <ele>369</ele>
        <time>2011-06-10T07:38:15Z</time>
      </trkpt>
      <trkpt lat="45.24238" lon="5.62977">
        <ele>368</ele>
        <time>2011-06-10T07:38:16Z</time>
      </trkpt>
      <trkpt lat="45.24241" lon="5.62982">
        <ele>368</ele>
        <time>2011-06-10T07:38:17Z</time>
      </trkpt>
      <trkpt lat="45.24246" lon="5.62985">
        <ele>367</ele>
        <time>2011-06-10T07:38:18Z</time>
      </trkpt>
      <trkpt lat="45.24253" lon="5.62994">
        <ele>367</ele>
        <time>2011-06-10T07:38:20Z</time>
      </trkpt>
      <trkpt lat="45.24256" lon="5.62999">
        <ele>367</ele>
        <time>2011-06-10T07:38:21Z</time>
      </trkpt>
      <trkpt lat="45.24263" lon="5.63">
        <ele>367</ele>
        <time>2011-06-10T07:38:22Z</time>
      </trkpt>
      <trkpt lat="45.24269" lon="5.63002">
        <ele>366</ele>
        <time>2011-06-10T07:38:23Z</time>
      </trkpt>
      <trkpt lat="45.24274" lon="5.63008">
        <ele>365</ele>
        <time>2011-06-10T07:38:24Z</time>
      </trkpt>
      <trkpt lat="45.2428" lon="5.63012">
        <ele>365</ele>
        <time>2011-06-10T07:38:25Z</time>
      </trkpt>
      <trkpt lat="45.24286" lon="5.63016">
        <ele>363</ele>
        <time>2011-06-10T07:38:26Z</time>
      </trkpt>
      <trkpt lat="45.24295" lon="5.63019">
        <ele>361</ele>
        <time>2011-06-10T07:38:27Z</time>
      </trkpt>
      <trkpt lat="45.24303" lon="5.63024">
        <ele>360</ele>
        <time>2011-06-10T07:38:28Z</time>
      </trkpt>
      <trkpt lat="45.24309" lon="5.63029">
        <ele>359</ele>
        <time>2011-06-10T07:38:29Z</time>
      </trkpt>
      <trkpt lat="45.24316" lon="5.63034">
        <ele>358</ele>
        <time>2011-06-10T07:38:30Z</time>
      </trkpt>
      <trkpt lat="45.24325" lon="5.63039">
        <ele>356</ele>
        <time>2011-06-10T07:38:31Z</time>
      </trkpt>
      <trkpt lat="45.2434" lon="5.63044">
        <ele>352</ele>
        <time>2011-06-10T07:38:33Z</time>
      </trkpt>
      <trkpt lat="45.24349" lon="5.63048">
        <ele>351</ele>
        <time>2011-06-10T07:38:34Z</time>
      </trkpt>
      <trkpt lat="45.24358" lon="5.63052">
        <ele>350</ele>
        <time>2011-06-10T07:38:35Z</time>
      </trkpt>
      <trkpt lat="45.24364" lon="5.63062">
        <ele>349</ele>
        <time>2011-06-10T07:38:36Z</time>
      </trkpt>
      <trkpt lat="45.2437" lon="5.63068">
        <ele>349</ele>
        <time>2011-06-10T07:38:37Z</time>
      </trkpt>
      <trkpt lat="45.24378" lon="5.6307">
        <ele>347</ele>
        <time>2011-06-10T07:38:38Z</time>
      </trkpt>
      <trkpt lat="45.24384" lon="5.63071">
        <ele>346</ele>
        <time>2011-06-10T07:38:39Z</time>
      </trkpt>
      <trkpt lat="45.24392" lon="5.63073">
        <ele>344</ele>
        <time>2011-06-10T07:38:41Z</time>
      </trkpt>
      <trkpt lat="45.244" lon="5.63076">
        <ele>340</ele>
        <time>2011-06-10T07:38:43Z</time>
      </trkpt>
      <trkpt lat="45.24411" lon="5.63076">
        <ele>336</ele>
        <time>2011-06-10T07:38:46Z</time>
      </trkpt>
      <trkpt lat="45.24416" lon="5.63074">
        <ele>333</ele>
        <time>2011-06-10T07:38:48Z</time>
      </trkpt>
      <trkpt lat="45.24419" lon="5.63078">
        <ele>330</ele>
        <time>2011-06-10T07:38:50Z</time>
      </trkpt>
      <trkpt lat="45.24425" lon="5.6308">
        <ele>329</ele>
        <time>2011-06-10T07:38:53Z</time>
      </trkpt>
      <trkpt lat="45.2443" lon="5.63082">
        <ele>327</ele>
        <time>2011-06-10T07:38:55Z</time>
      </trkpt>
      <trkpt lat="45.24433" lon="5.63087">
        <ele>326</ele>
        <time>2011-06-10T07:38:57Z</time>
      </trkpt>
      <trkpt lat="45.24439" lon="5.63091">
        <ele>321</ele>
        <time>2011-06-10T07:39:00Z</time>
      </trkpt>
      <trkpt lat="45.24442" lon="5.63097">
        <ele>319</ele>
        <time>2011-06-10T07:39:02Z</time>
      </trkpt>
      <trkpt lat="45.24449" lon="5.63098">
        <ele>315</ele>
        <time>2011-06-10T07:39:05Z</time>
      </trkpt>
      <trkpt lat="45.24454" lon="5.63102">
        <ele>314</ele>
        <time>2011-06-10T07:39:08Z</time>
      </trkpt>
      <trkpt lat="45.24459" lon="5.63108">
        <ele>313</ele>
        <time>2011-06-10T07:39:12Z</time>
      </trkpt>
      <trkpt lat="45.24462" lon="5.63114">
        <ele>310</ele>
        <time>2011-06-10T07:39:15Z</time>
      </trkpt>
      <trkpt lat="45.24466" lon="5.63122">
        <ele>307</ele>
        <time>2011-06-10T07:39:18Z</time>
      </trkpt>
      <trkpt lat="45.24474" lon="5.63128">
        <ele>293</ele>
        <time>2011-06-10T07:39:36Z</time>
      </trkpt>
    </trkseg>
  </trk>
</gpx>